<?xml version="1.0" encoding="UTF-8" standalone="no" ?>
<gpx xmlns="http://www.topografix.com/GPX/1/1" creator="CompeGPS" version="1.1" xmlns:xsi="http://www.w3.org/2001/XMLSchema-instance" xsi:schemaLocation="http://www.topografix.com/GPX/1/1 http://www.topografix.com/GPX/1/1/gpx.xsd http://www.garmin.com/xmlschemas/GpxExtensions/v3 http://www.garmin.com/xmlschemas/GpxExtensionsv3.xsd http://www.garmin.com/xmlschemas/TrackPointExtension/v1 http://www.garmin.com/xmlschemas/TrackPointExtensionv1.xsd" xmlns:gpxtpx="http://www.garmin.com/xmlschemas/TrackPointExtension/v1">
  <metadata>
    <link href="http://www.compegps.com">
      <text>CompeGPS TEAM, SL</text>
    </link>
    <time>2014-03-09T21:16:50Z</time>
    <bounds maxlat="43.777525" maxlon="1.583797" minlat="43.754964" minlon="1.556026"/>
  </metadata>
<wpt lat="43.755556" lon="1.556026">
<ele>185</ele>
<name>Paulhac</name>
</wpt>
<wpt lat="43.755884" lon="1.559733">
<ele>185</ele>
<name>Chemin de Lagraille</name>
</wpt>
<wpt lat="43.762156" lon="1.566144">
<ele>163</ele>
<name>Foret de Buzet</name>
</wpt>
<wpt lat="43.770562" lon="1.566284">
<ele>165</ele>
<name>Clairiere des jeunes pins</name>
</wpt>
<wpt lat="43.766786" lon="1.583770">
<ele>153</ele>
<name>Parcours sportif</name>
</wpt>
<wpt lat="43.763120" lon="1.581222">
<ele>163</ele>
<name>Parking Sud</name>
</wpt>
<trk>
    <name>Foret de Buzet</name>
    <trkseg>
      <trkpt lat="43.755556" lon="1.556026">
        <ele>185.6</ele>
        <time>2014-03-09T13:47:04Z</time>
        <name>Paulhac</name>
      </trkpt>
      <trkpt lat="43.755510" lon="1.556115">
        <ele>186.7</ele>
        <time>2014-03-09T13:47:18Z</time>
      </trkpt>
      <trkpt lat="43.755461" lon="1.556243">
        <ele>186.7</ele>
        <time>2014-03-09T13:47:33Z</time>
      </trkpt>
      <trkpt lat="43.755452" lon="1.556374">
        <ele>186.8</ele>
        <time>2014-03-09T13:47:44Z</time>
      </trkpt>
      <trkpt lat="43.755475" lon="1.556504">
        <ele>186.9</ele>
        <time>2014-03-09T13:47:54Z</time>
      </trkpt>
      <trkpt lat="43.755492" lon="1.556629">
        <ele>187.2</ele>
        <time>2014-03-09T13:48:03Z</time>
      </trkpt>
      <trkpt lat="43.755441" lon="1.556774">
        <ele>187.4</ele>
        <time>2014-03-09T13:48:18Z</time>
      </trkpt>
      <trkpt lat="43.755384" lon="1.556903">
        <ele>187.5</ele>
        <time>2014-03-09T13:48:26Z</time>
      </trkpt>
      <trkpt lat="43.755370" lon="1.557047">
        <ele>187.5</ele>
        <time>2014-03-09T13:48:34Z</time>
      </trkpt>
      <trkpt lat="43.755340" lon="1.557199">
        <ele>186.8</ele>
        <time>2014-03-09T13:48:43Z</time>
      </trkpt>
      <trkpt lat="43.755290" lon="1.557313">
        <ele>185.9</ele>
        <time>2014-03-09T13:48:51Z</time>
      </trkpt>
      <trkpt lat="43.755249" lon="1.557427">
        <ele>185.3</ele>
        <time>2014-03-09T13:48:59Z</time>
      </trkpt>
      <trkpt lat="43.755205" lon="1.557542">
        <ele>185.1</ele>
        <time>2014-03-09T13:49:08Z</time>
      </trkpt>
      <trkpt lat="43.755160" lon="1.557651">
        <ele>184.8</ele>
        <time>2014-03-09T13:49:17Z</time>
      </trkpt>
      <trkpt lat="43.755108" lon="1.557753">
        <ele>184.8</ele>
        <time>2014-03-09T13:49:25Z</time>
      </trkpt>
      <trkpt lat="43.755047" lon="1.557857">
        <ele>184.6</ele>
        <time>2014-03-09T13:49:33Z</time>
      </trkpt>
      <trkpt lat="43.755020" lon="1.557984">
        <ele>184.3</ele>
        <time>2014-03-09T13:49:41Z</time>
      </trkpt>
      <trkpt lat="43.755000" lon="1.558116">
        <ele>183.8</ele>
        <time>2014-03-09T13:49:49Z</time>
      </trkpt>
      <trkpt lat="43.754994" lon="1.558249">
        <ele>183.6</ele>
        <time>2014-03-09T13:49:59Z</time>
      </trkpt>
      <trkpt lat="43.754990" lon="1.558388">
        <ele>183.4</ele>
        <time>2014-03-09T13:50:07Z</time>
      </trkpt>
      <trkpt lat="43.754983" lon="1.558514">
        <ele>182.8</ele>
        <time>2014-03-09T13:50:15Z</time>
      </trkpt>
      <trkpt lat="43.754978" lon="1.558645">
        <ele>182.7</ele>
        <time>2014-03-09T13:50:23Z</time>
      </trkpt>
      <trkpt lat="43.754981" lon="1.558785">
        <ele>182.4</ele>
        <time>2014-03-09T13:50:32Z</time>
      </trkpt>
      <trkpt lat="43.754993" lon="1.558925">
        <ele>182.1</ele>
        <time>2014-03-09T13:50:41Z</time>
      </trkpt>
      <trkpt lat="43.755003" lon="1.559063">
        <ele>182.1</ele>
        <time>2014-03-09T13:50:51Z</time>
      </trkpt>
      <trkpt lat="43.755077" lon="1.559155">
        <ele>182.2</ele>
        <time>2014-03-09T13:51:00Z</time>
      </trkpt>
      <trkpt lat="43.755146" lon="1.559250">
        <ele>182.0</ele>
        <time>2014-03-09T13:51:09Z</time>
      </trkpt>
      <trkpt lat="43.755228" lon="1.559344">
        <ele>182.2</ele>
        <time>2014-03-09T13:51:21Z</time>
      </trkpt>
      <trkpt lat="43.755325" lon="1.559425">
        <ele>182.4</ele>
        <time>2014-03-09T13:51:31Z</time>
      </trkpt>
      <trkpt lat="43.755412" lon="1.559486">
        <ele>182.3</ele>
        <time>2014-03-09T13:51:40Z</time>
      </trkpt>
      <trkpt lat="43.755510" lon="1.559547">
        <ele>182.1</ele>
        <time>2014-03-09T13:51:49Z</time>
      </trkpt>
      <trkpt lat="43.755604" lon="1.559602">
        <ele>182.1</ele>
        <time>2014-03-09T13:51:57Z</time>
      </trkpt>
      <trkpt lat="43.755677" lon="1.559671">
        <ele>182.2</ele>
        <time>2014-03-09T13:52:08Z</time>
      </trkpt>
      <trkpt lat="43.755786" lon="1.559709">
        <ele>182.3</ele>
        <time>2014-03-09T13:52:19Z</time>
      </trkpt>
      <trkpt lat="43.755884" lon="1.559733">
        <ele>182.2</ele>
        <time>2014-03-09T13:52:27Z</time>
        <name>Chemin de Lagraille</name>
      </trkpt>
      <trkpt lat="43.755978" lon="1.559777">
        <ele>182.0</ele>
        <time>2014-03-09T13:52:36Z</time>
      </trkpt>
      <trkpt lat="43.756074" lon="1.559843">
        <ele>181.9</ele>
        <time>2014-03-09T13:52:45Z</time>
      </trkpt>
      <trkpt lat="43.756150" lon="1.559915">
        <ele>182.1</ele>
        <time>2014-03-09T13:52:53Z</time>
      </trkpt>
      <trkpt lat="43.756236" lon="1.559996">
        <ele>182.2</ele>
        <time>2014-03-09T13:53:02Z</time>
      </trkpt>
      <trkpt lat="43.756318" lon="1.560072">
        <ele>181.9</ele>
        <time>2014-03-09T13:53:11Z</time>
      </trkpt>
      <trkpt lat="43.756413" lon="1.560135">
        <ele>182.2</ele>
        <time>2014-03-09T13:53:20Z</time>
      </trkpt>
      <trkpt lat="43.756504" lon="1.560194">
        <ele>182.3</ele>
        <time>2014-03-09T13:53:27Z</time>
      </trkpt>
      <trkpt lat="43.756601" lon="1.560242">
        <ele>182.2</ele>
        <time>2014-03-09T13:53:35Z</time>
      </trkpt>
      <trkpt lat="43.756692" lon="1.560291">
        <ele>181.9</ele>
        <time>2014-03-09T13:53:43Z</time>
      </trkpt>
      <trkpt lat="43.756775" lon="1.560332">
        <ele>181.5</ele>
        <time>2014-03-09T13:53:52Z</time>
      </trkpt>
      <trkpt lat="43.756862" lon="1.560378">
        <ele>180.9</ele>
        <time>2014-03-09T13:54:01Z</time>
      </trkpt>
      <trkpt lat="43.756952" lon="1.560441">
        <ele>180.7</ele>
        <time>2014-03-09T13:54:10Z</time>
      </trkpt>
      <trkpt lat="43.757056" lon="1.560507">
        <ele>179.8</ele>
        <time>2014-03-09T13:54:20Z</time>
      </trkpt>
      <trkpt lat="43.757143" lon="1.560562">
        <ele>179.0</ele>
        <time>2014-03-09T13:54:28Z</time>
      </trkpt>
      <trkpt lat="43.757227" lon="1.560615">
        <ele>178.4</ele>
        <time>2014-03-09T13:54:36Z</time>
      </trkpt>
      <trkpt lat="43.757315" lon="1.560681">
        <ele>177.8</ele>
        <time>2014-03-09T13:54:45Z</time>
      </trkpt>
      <trkpt lat="43.757401" lon="1.560737">
        <ele>177.1</ele>
        <time>2014-03-09T13:54:53Z</time>
      </trkpt>
      <trkpt lat="43.757478" lon="1.560798">
        <ele>176.6</ele>
        <time>2014-03-09T13:55:01Z</time>
      </trkpt>
      <trkpt lat="43.757552" lon="1.560858">
        <ele>176.3</ele>
        <time>2014-03-09T13:55:09Z</time>
      </trkpt>
      <trkpt lat="43.757635" lon="1.560924">
        <ele>175.8</ele>
        <time>2014-03-09T13:55:17Z</time>
      </trkpt>
      <trkpt lat="43.757710" lon="1.560995">
        <ele>175.2</ele>
        <time>2014-03-09T13:55:26Z</time>
      </trkpt>
      <trkpt lat="43.757790" lon="1.561048">
        <ele>174.9</ele>
        <time>2014-03-09T13:55:34Z</time>
      </trkpt>
      <trkpt lat="43.757879" lon="1.561115">
        <ele>174.8</ele>
        <time>2014-03-09T13:55:43Z</time>
      </trkpt>
      <trkpt lat="43.757972" lon="1.561177">
        <ele>174.3</ele>
        <time>2014-03-09T13:55:52Z</time>
      </trkpt>
      <trkpt lat="43.758065" lon="1.561244">
        <ele>173.7</ele>
        <time>2014-03-09T13:56:02Z</time>
      </trkpt>
      <trkpt lat="43.758159" lon="1.561322">
        <ele>173.1</ele>
        <time>2014-03-09T13:56:11Z</time>
      </trkpt>
      <trkpt lat="43.758253" lon="1.561376">
        <ele>172.6</ele>
        <time>2014-03-09T13:56:20Z</time>
      </trkpt>
      <trkpt lat="43.758343" lon="1.561442">
        <ele>172.3</ele>
        <time>2014-03-09T13:56:28Z</time>
      </trkpt>
      <trkpt lat="43.758423" lon="1.561499">
        <ele>171.7</ele>
        <time>2014-03-09T13:56:36Z</time>
      </trkpt>
      <trkpt lat="43.758518" lon="1.561554">
        <ele>170.9</ele>
        <time>2014-03-09T13:56:45Z</time>
      </trkpt>
      <trkpt lat="43.758610" lon="1.561600">
        <ele>169.2</ele>
        <time>2014-03-09T13:56:56Z</time>
      </trkpt>
      <trkpt lat="43.758708" lon="1.561656">
        <ele>168.2</ele>
        <time>2014-03-09T13:57:06Z</time>
      </trkpt>
      <trkpt lat="43.758815" lon="1.561694">
        <ele>167.6</ele>
        <time>2014-03-09T13:57:15Z</time>
      </trkpt>
      <trkpt lat="43.758909" lon="1.561736">
        <ele>166.7</ele>
        <time>2014-03-09T13:57:23Z</time>
      </trkpt>
      <trkpt lat="43.759002" lon="1.561749">
        <ele>165.7</ele>
        <time>2014-03-09T13:57:31Z</time>
      </trkpt>
      <trkpt lat="43.759111" lon="1.561769">
        <ele>165.1</ele>
        <time>2014-03-09T13:57:41Z</time>
      </trkpt>
      <trkpt lat="43.759200" lon="1.561805">
        <ele>164.6</ele>
        <time>2014-03-09T13:57:50Z</time>
      </trkpt>
      <trkpt lat="43.759311" lon="1.561835">
        <ele>164.7</ele>
        <time>2014-03-09T13:57:58Z</time>
      </trkpt>
      <trkpt lat="43.759405" lon="1.561869">
        <ele>164.5</ele>
        <time>2014-03-09T13:58:07Z</time>
      </trkpt>
      <trkpt lat="43.759494" lon="1.561909">
        <ele>164.4</ele>
        <time>2014-03-09T13:58:15Z</time>
      </trkpt>
      <trkpt lat="43.759583" lon="1.561947">
        <ele>164.0</ele>
        <time>2014-03-09T13:58:24Z</time>
      </trkpt>
      <trkpt lat="43.759692" lon="1.561976">
        <ele>164.1</ele>
        <time>2014-03-09T13:58:48Z</time>
      </trkpt>
      <trkpt lat="43.759779" lon="1.562020">
        <ele>163.9</ele>
        <time>2014-03-09T13:58:56Z</time>
      </trkpt>
      <trkpt lat="43.759864" lon="1.562073">
        <ele>163.6</ele>
        <time>2014-03-09T13:59:05Z</time>
      </trkpt>
      <trkpt lat="43.759952" lon="1.562134">
        <ele>163.6</ele>
        <time>2014-03-09T13:59:15Z</time>
      </trkpt>
      <trkpt lat="43.760029" lon="1.562188">
        <ele>164.1</ele>
        <time>2014-03-09T13:59:26Z</time>
      </trkpt>
      <trkpt lat="43.760113" lon="1.562219">
        <ele>164.2</ele>
        <time>2014-03-09T13:59:37Z</time>
      </trkpt>
      <trkpt lat="43.760199" lon="1.562252">
        <ele>164.1</ele>
        <time>2014-03-09T13:59:46Z</time>
      </trkpt>
      <trkpt lat="43.760285" lon="1.562294">
        <ele>163.9</ele>
        <time>2014-03-09T13:59:55Z</time>
      </trkpt>
      <trkpt lat="43.760368" lon="1.562352">
        <ele>164.0</ele>
        <time>2014-03-09T14:00:04Z</time>
      </trkpt>
      <trkpt lat="43.760455" lon="1.562415">
        <ele>163.9</ele>
        <time>2014-03-09T14:00:13Z</time>
      </trkpt>
      <trkpt lat="43.760531" lon="1.562473">
        <ele>164.0</ele>
        <time>2014-03-09T14:00:21Z</time>
      </trkpt>
      <trkpt lat="43.760600" lon="1.562544">
        <ele>164.0</ele>
        <time>2014-03-09T14:00:32Z</time>
      </trkpt>
      <trkpt lat="43.760672" lon="1.562611">
        <ele>163.5</ele>
        <time>2014-03-09T14:00:40Z</time>
      </trkpt>
      <trkpt lat="43.760751" lon="1.562665">
        <ele>163.7</ele>
        <time>2014-03-09T14:00:49Z</time>
      </trkpt>
      <trkpt lat="43.760843" lon="1.562725">
        <ele>163.6</ele>
        <time>2014-03-09T14:00:59Z</time>
      </trkpt>
      <trkpt lat="43.760923" lon="1.562795">
        <ele>163.7</ele>
        <time>2014-03-09T14:01:08Z</time>
      </trkpt>
      <trkpt lat="43.761009" lon="1.562863">
        <ele>163.5</ele>
        <time>2014-03-09T14:01:17Z</time>
      </trkpt>
      <trkpt lat="43.761097" lon="1.562906">
        <ele>163.5</ele>
        <time>2014-03-09T14:01:26Z</time>
      </trkpt>
      <trkpt lat="43.761182" lon="1.562946">
        <ele>163.2</ele>
        <time>2014-03-09T14:01:34Z</time>
      </trkpt>
      <trkpt lat="43.761270" lon="1.562986">
        <ele>163.2</ele>
        <time>2014-03-09T14:01:43Z</time>
      </trkpt>
      <trkpt lat="43.761360" lon="1.563008">
        <ele>163.0</ele>
        <time>2014-03-09T14:01:51Z</time>
      </trkpt>
      <trkpt lat="43.761445" lon="1.563040">
        <ele>162.9</ele>
        <time>2014-03-09T14:02:00Z</time>
      </trkpt>
      <trkpt lat="43.761536" lon="1.563065">
        <ele>163.0</ele>
        <time>2014-03-09T14:02:08Z</time>
      </trkpt>
      <trkpt lat="43.761631" lon="1.563087">
        <ele>163.0</ele>
        <time>2014-03-09T14:02:17Z</time>
      </trkpt>
      <trkpt lat="43.761730" lon="1.563098">
        <ele>163.0</ele>
        <time>2014-03-09T14:02:26Z</time>
      </trkpt>
      <trkpt lat="43.761825" lon="1.563112">
        <ele>163.4</ele>
        <time>2014-03-09T14:02:36Z</time>
      </trkpt>
      <trkpt lat="43.761923" lon="1.563126">
        <ele>163.1</ele>
        <time>2014-03-09T14:02:45Z</time>
      </trkpt>
      <trkpt lat="43.762024" lon="1.563151">
        <ele>162.5</ele>
        <time>2014-03-09T14:02:54Z</time>
      </trkpt>
      <trkpt lat="43.762124" lon="1.563177">
        <ele>162.4</ele>
        <time>2014-03-09T14:03:04Z</time>
      </trkpt>
      <trkpt lat="43.762222" lon="1.563235">
        <ele>162.5</ele>
        <time>2014-03-09T14:03:13Z</time>
      </trkpt>
      <trkpt lat="43.762232" lon="1.563348">
        <ele>162.7</ele>
        <time>2014-03-09T14:03:21Z</time>
      </trkpt>
      <trkpt lat="43.762242" lon="1.563481">
        <ele>162.6</ele>
        <time>2014-03-09T14:03:31Z</time>
      </trkpt>
      <trkpt lat="43.762260" lon="1.563609">
        <ele>162.2</ele>
        <time>2014-03-09T14:03:39Z</time>
      </trkpt>
      <trkpt lat="43.762268" lon="1.563739">
        <ele>162.1</ele>
        <time>2014-03-09T14:03:48Z</time>
      </trkpt>
      <trkpt lat="43.762267" lon="1.563878">
        <ele>162.1</ele>
        <time>2014-03-09T14:03:57Z</time>
      </trkpt>
      <trkpt lat="43.762263" lon="1.564010">
        <ele>162.1</ele>
        <time>2014-03-09T14:04:06Z</time>
      </trkpt>
      <trkpt lat="43.762272" lon="1.564143">
        <ele>161.9</ele>
        <time>2014-03-09T14:04:15Z</time>
      </trkpt>
      <trkpt lat="43.762262" lon="1.564275">
        <ele>162.4</ele>
        <time>2014-03-09T14:04:24Z</time>
      </trkpt>
      <trkpt lat="43.762275" lon="1.564428">
        <ele>162.4</ele>
        <time>2014-03-09T14:04:35Z</time>
      </trkpt>
      <trkpt lat="43.762284" lon="1.564556">
        <ele>160.8</ele>
        <time>2014-03-09T14:04:44Z</time>
      </trkpt>
      <trkpt lat="43.762279" lon="1.564709">
        <ele>162.0</ele>
        <time>2014-03-09T14:04:55Z</time>
      </trkpt>
      <trkpt lat="43.762271" lon="1.564887">
        <ele>162.0</ele>
        <time>2014-03-09T14:05:06Z</time>
      </trkpt>
      <trkpt lat="43.762269" lon="1.565034">
        <ele>162.1</ele>
        <time>2014-03-09T14:05:15Z</time>
      </trkpt>
      <trkpt lat="43.762275" lon="1.565179">
        <ele>162.2</ele>
        <time>2014-03-09T14:05:25Z</time>
      </trkpt>
      <trkpt lat="43.762289" lon="1.565299">
        <ele>162.1</ele>
        <time>2014-03-09T14:05:47Z</time>
      </trkpt>
      <trkpt lat="43.762295" lon="1.565430">
        <ele>162.2</ele>
        <time>2014-03-09T14:05:56Z</time>
      </trkpt>
      <trkpt lat="43.762305" lon="1.565557">
        <ele>162.5</ele>
        <time>2014-03-09T14:06:03Z</time>
      </trkpt>
      <trkpt lat="43.762283" lon="1.565669">
        <ele>162.6</ele>
        <time>2014-03-09T14:06:10Z</time>
      </trkpt>
      <trkpt lat="43.762243" lon="1.565805">
        <ele>162.1</ele>
        <time>2014-03-09T14:06:19Z</time>
      </trkpt>
      <trkpt lat="43.762198" lon="1.565984">
        <ele>162.4</ele>
        <time>2014-03-09T14:06:29Z</time>
      </trkpt>
      <trkpt lat="43.762156" lon="1.566144">
        <ele>162.2</ele>
        <time>2014-03-09T14:06:42Z</time>
        <name>Foret de Buzet</name>
      </trkpt>
      <trkpt lat="43.762169" lon="1.566184">
        <ele>161.1</ele>
        <time>2014-03-09T14:07:36Z</time>
      </trkpt>
      <trkpt lat="43.762180" lon="1.566352">
        <ele>160.5</ele>
        <time>2014-03-09T14:07:51Z</time>
      </trkpt>
      <trkpt lat="43.762160" lon="1.566535">
        <ele>161.4</ele>
        <time>2014-03-09T14:08:05Z</time>
      </trkpt>
      <trkpt lat="43.762114" lon="1.566691">
        <ele>161.6</ele>
        <time>2014-03-09T14:08:15Z</time>
      </trkpt>
      <trkpt lat="43.762104" lon="1.566893">
        <ele>161.3</ele>
        <time>2014-03-09T14:08:30Z</time>
      </trkpt>
      <trkpt lat="43.762072" lon="1.567061">
        <ele>161.4</ele>
        <time>2014-03-09T14:08:41Z</time>
      </trkpt>
      <trkpt lat="43.762025" lon="1.567273">
        <ele>161.1</ele>
        <time>2014-03-09T14:08:56Z</time>
      </trkpt>
      <trkpt lat="43.762000" lon="1.567464">
        <ele>160.6</ele>
        <time>2014-03-09T14:09:10Z</time>
      </trkpt>
      <trkpt lat="43.761947" lon="1.567660">
        <ele>159.8</ele>
        <time>2014-03-09T14:09:23Z</time>
      </trkpt>
      <trkpt lat="43.761922" lon="1.567837">
        <ele>159.1</ele>
        <time>2014-03-09T14:09:35Z</time>
      </trkpt>
      <trkpt lat="43.761895" lon="1.568025">
        <ele>158.5</ele>
        <time>2014-03-09T14:09:46Z</time>
      </trkpt>
      <trkpt lat="43.761842" lon="1.568226">
        <ele>157.8</ele>
        <time>2014-03-09T14:10:01Z</time>
      </trkpt>
      <trkpt lat="43.761818" lon="1.568439">
        <ele>158.3</ele>
        <time>2014-03-09T14:10:17Z</time>
      </trkpt>
      <trkpt lat="43.761805" lon="1.568636">
        <ele>157.2</ele>
        <time>2014-03-09T14:10:33Z</time>
      </trkpt>
      <trkpt lat="43.761758" lon="1.568871">
        <ele>156.0</ele>
        <time>2014-03-09T14:10:49Z</time>
      </trkpt>
      <trkpt lat="43.761742" lon="1.569056">
        <ele>156.2</ele>
        <time>2014-03-09T14:11:07Z</time>
      </trkpt>
      <trkpt lat="43.761687" lon="1.569082">
        <ele>157.0</ele>
        <time>2014-03-09T14:11:34Z</time>
      </trkpt>
      <trkpt lat="43.761743" lon="1.569222">
        <ele>157.3</ele>
        <time>2014-03-09T14:11:59Z</time>
      </trkpt>
      <trkpt lat="43.761859" lon="1.569330">
        <ele>158.4</ele>
        <time>2014-03-09T14:12:14Z</time>
      </trkpt>
      <trkpt lat="43.761997" lon="1.569329">
        <ele>158.8</ele>
        <time>2014-03-09T14:12:28Z</time>
      </trkpt>
      <trkpt lat="43.762145" lon="1.569366">
        <ele>158.7</ele>
        <time>2014-03-09T14:12:42Z</time>
      </trkpt>
      <trkpt lat="43.762288" lon="1.569384">
        <ele>158.8</ele>
        <time>2014-03-09T14:12:54Z</time>
      </trkpt>
      <trkpt lat="43.762424" lon="1.569408">
        <ele>158.5</ele>
        <time>2014-03-09T14:13:07Z</time>
      </trkpt>
      <trkpt lat="43.762515" lon="1.569437">
        <ele>158.3</ele>
        <time>2014-03-09T14:13:25Z</time>
      </trkpt>
      <trkpt lat="43.762607" lon="1.569516">
        <ele>157.8</ele>
        <time>2014-03-09T14:13:37Z</time>
      </trkpt>
      <trkpt lat="43.762677" lon="1.569665">
        <ele>157.5</ele>
        <time>2014-03-09T14:13:48Z</time>
      </trkpt>
      <trkpt lat="43.762771" lon="1.569788">
        <ele>156.4</ele>
        <time>2014-03-09T14:13:59Z</time>
      </trkpt>
      <trkpt lat="43.762844" lon="1.569913">
        <ele>155.6</ele>
        <time>2014-03-09T14:14:10Z</time>
      </trkpt>
      <trkpt lat="43.762853" lon="1.569914">
        <ele>154.0</ele>
        <time>2014-03-09T14:14:33Z</time>
      </trkpt>
      <trkpt lat="43.762901" lon="1.569990">
        <ele>153.7</ele>
        <time>2014-03-09T14:15:09Z</time>
      </trkpt>
      <trkpt lat="43.762963" lon="1.570116">
        <ele>154.0</ele>
        <time>2014-03-09T14:15:22Z</time>
      </trkpt>
      <trkpt lat="43.763008" lon="1.570236">
        <ele>154.5</ele>
        <time>2014-03-09T14:15:33Z</time>
      </trkpt>
      <trkpt lat="43.763039" lon="1.570380">
        <ele>154.7</ele>
        <time>2014-03-09T14:15:55Z</time>
      </trkpt>
      <trkpt lat="43.763096" lon="1.570513">
        <ele>154.9</ele>
        <time>2014-03-09T14:16:06Z</time>
      </trkpt>
      <trkpt lat="43.763183" lon="1.570622">
        <ele>155.2</ele>
        <time>2014-03-09T14:16:19Z</time>
      </trkpt>
      <trkpt lat="43.763242" lon="1.570769">
        <ele>155.3</ele>
        <time>2014-03-09T14:16:32Z</time>
      </trkpt>
      <trkpt lat="43.763295" lon="1.570937">
        <ele>155.3</ele>
        <time>2014-03-09T14:16:43Z</time>
      </trkpt>
      <trkpt lat="43.763369" lon="1.571053">
        <ele>155.9</ele>
        <time>2014-03-09T14:16:53Z</time>
      </trkpt>
      <trkpt lat="43.763436" lon="1.571176">
        <ele>156.8</ele>
        <time>2014-03-09T14:17:03Z</time>
      </trkpt>
      <trkpt lat="43.763487" lon="1.571320">
        <ele>157.5</ele>
        <time>2014-03-09T14:17:14Z</time>
      </trkpt>
      <trkpt lat="43.763540" lon="1.571447">
        <ele>157.8</ele>
        <time>2014-03-09T14:17:23Z</time>
      </trkpt>
      <trkpt lat="43.763612" lon="1.571578">
        <ele>157.8</ele>
        <time>2014-03-09T14:17:34Z</time>
      </trkpt>
      <trkpt lat="43.763675" lon="1.571711">
        <ele>157.8</ele>
        <time>2014-03-09T14:17:45Z</time>
      </trkpt>
      <trkpt lat="43.763734" lon="1.571842">
        <ele>158.1</ele>
        <time>2014-03-09T14:18:04Z</time>
      </trkpt>
      <trkpt lat="43.763744" lon="1.571857">
        <ele>158.0</ele>
        <time>2014-03-09T14:18:38Z</time>
      </trkpt>
      <trkpt lat="43.763811" lon="1.571841">
        <ele>158.0</ele>
        <time>2014-03-09T14:18:58Z</time>
      </trkpt>
      <trkpt lat="43.763927" lon="1.571801">
        <ele>158.1</ele>
        <time>2014-03-09T14:19:13Z</time>
      </trkpt>
      <trkpt lat="43.764066" lon="1.571757">
        <ele>157.3</ele>
        <time>2014-03-09T14:19:26Z</time>
      </trkpt>
      <trkpt lat="43.764189" lon="1.571703">
        <ele>157.0</ele>
        <time>2014-03-09T14:19:37Z</time>
      </trkpt>
      <trkpt lat="43.764321" lon="1.571628">
        <ele>155.9</ele>
        <time>2014-03-09T14:19:49Z</time>
      </trkpt>
      <trkpt lat="43.764441" lon="1.571596">
        <ele>155.8</ele>
        <time>2014-03-09T14:20:01Z</time>
      </trkpt>
      <trkpt lat="43.764549" lon="1.571536">
        <ele>155.4</ele>
        <time>2014-03-09T14:20:12Z</time>
      </trkpt>
      <trkpt lat="43.764683" lon="1.571491">
        <ele>154.9</ele>
        <time>2014-03-09T14:20:23Z</time>
      </trkpt>
      <trkpt lat="43.764803" lon="1.571480">
        <ele>154.6</ele>
        <time>2014-03-09T14:20:36Z</time>
      </trkpt>
      <trkpt lat="43.764907" lon="1.571453">
        <ele>154.4</ele>
        <time>2014-03-09T14:20:46Z</time>
      </trkpt>
      <trkpt lat="43.765040" lon="1.571438">
        <ele>154.2</ele>
        <time>2014-03-09T14:20:58Z</time>
      </trkpt>
      <trkpt lat="43.765157" lon="1.571403">
        <ele>153.9</ele>
        <time>2014-03-09T14:21:10Z</time>
      </trkpt>
      <trkpt lat="43.765262" lon="1.571333">
        <ele>153.2</ele>
        <time>2014-03-09T14:21:21Z</time>
      </trkpt>
      <trkpt lat="43.765395" lon="1.571264">
        <ele>153.0</ele>
        <time>2014-03-09T14:21:31Z</time>
      </trkpt>
      <trkpt lat="43.765518" lon="1.571248">
        <ele>153.0</ele>
        <time>2014-03-09T14:21:40Z</time>
      </trkpt>
      <trkpt lat="43.765629" lon="1.571262">
        <ele>153.0</ele>
        <time>2014-03-09T14:21:51Z</time>
      </trkpt>
      <trkpt lat="43.765736" lon="1.571305">
        <ele>153.2</ele>
        <time>2014-03-09T14:22:01Z</time>
      </trkpt>
      <trkpt lat="43.765843" lon="1.571312">
        <ele>153.4</ele>
        <time>2014-03-09T14:22:10Z</time>
      </trkpt>
      <trkpt lat="43.765963" lon="1.571311">
        <ele>153.8</ele>
        <time>2014-03-09T14:22:19Z</time>
      </trkpt>
      <trkpt lat="43.766062" lon="1.571280">
        <ele>154.1</ele>
        <time>2014-03-09T14:22:30Z</time>
      </trkpt>
      <trkpt lat="43.766161" lon="1.571210">
        <ele>155.3</ele>
        <time>2014-03-09T14:22:40Z</time>
      </trkpt>
      <trkpt lat="43.766260" lon="1.571142">
        <ele>155.8</ele>
        <time>2014-03-09T14:22:50Z</time>
      </trkpt>
      <trkpt lat="43.766365" lon="1.571045">
        <ele>156.2</ele>
        <time>2014-03-09T14:23:01Z</time>
      </trkpt>
      <trkpt lat="43.766442" lon="1.570977">
        <ele>156.7</ele>
        <time>2014-03-09T14:23:11Z</time>
      </trkpt>
      <trkpt lat="43.766557" lon="1.570954">
        <ele>157.3</ele>
        <time>2014-03-09T14:23:21Z</time>
      </trkpt>
      <trkpt lat="43.766659" lon="1.570893">
        <ele>157.5</ele>
        <time>2014-03-09T14:23:31Z</time>
      </trkpt>
      <trkpt lat="43.766743" lon="1.570801">
        <ele>157.9</ele>
        <time>2014-03-09T14:23:41Z</time>
      </trkpt>
      <trkpt lat="43.766819" lon="1.570703">
        <ele>158.5</ele>
        <time>2014-03-09T14:23:53Z</time>
      </trkpt>
      <trkpt lat="43.766897" lon="1.570581">
        <ele>158.6</ele>
        <time>2014-03-09T14:24:04Z</time>
      </trkpt>
      <trkpt lat="43.766985" lon="1.570445">
        <ele>158.2</ele>
        <time>2014-03-09T14:24:14Z</time>
      </trkpt>
      <trkpt lat="43.767077" lon="1.570300">
        <ele>158.1</ele>
        <time>2014-03-09T14:24:27Z</time>
      </trkpt>
      <trkpt lat="43.767183" lon="1.570153">
        <ele>158.1</ele>
        <time>2014-03-09T14:24:38Z</time>
      </trkpt>
      <trkpt lat="43.767283" lon="1.570057">
        <ele>158.3</ele>
        <time>2014-03-09T14:24:49Z</time>
      </trkpt>
      <trkpt lat="43.767373" lon="1.569945">
        <ele>158.5</ele>
        <time>2014-03-09T14:25:00Z</time>
      </trkpt>
      <trkpt lat="43.767448" lon="1.569814">
        <ele>158.4</ele>
        <time>2014-03-09T14:25:09Z</time>
      </trkpt>
      <trkpt lat="43.767546" lon="1.569696">
        <ele>158.1</ele>
        <time>2014-03-09T14:25:21Z</time>
      </trkpt>
      <trkpt lat="43.767671" lon="1.569663">
        <ele>158.0</ele>
        <time>2014-03-09T14:25:32Z</time>
      </trkpt>
      <trkpt lat="43.767829" lon="1.569623">
        <ele>158.0</ele>
        <time>2014-03-09T14:25:43Z</time>
      </trkpt>
      <trkpt lat="43.767908" lon="1.569553">
        <ele>158.0</ele>
        <time>2014-03-09T14:25:52Z</time>
      </trkpt>
      <trkpt lat="43.767978" lon="1.569415">
        <ele>157.7</ele>
        <time>2014-03-09T14:26:03Z</time>
      </trkpt>
      <trkpt lat="43.768046" lon="1.569294">
        <ele>157.1</ele>
        <time>2014-03-09T14:26:13Z</time>
      </trkpt>
      <trkpt lat="43.768115" lon="1.569182">
        <ele>157.1</ele>
        <time>2014-03-09T14:26:23Z</time>
      </trkpt>
      <trkpt lat="43.768205" lon="1.569080">
        <ele>157.3</ele>
        <time>2014-03-09T14:26:33Z</time>
      </trkpt>
      <trkpt lat="43.768297" lon="1.568955">
        <ele>157.2</ele>
        <time>2014-03-09T14:26:43Z</time>
      </trkpt>
      <trkpt lat="43.768405" lon="1.568867">
        <ele>157.0</ele>
        <time>2014-03-09T14:26:53Z</time>
      </trkpt>
      <trkpt lat="43.768527" lon="1.568815">
        <ele>156.9</ele>
        <time>2014-03-09T14:27:04Z</time>
      </trkpt>
      <trkpt lat="43.768648" lon="1.568726">
        <ele>156.4</ele>
        <time>2014-03-09T14:27:14Z</time>
      </trkpt>
      <trkpt lat="43.768750" lon="1.568664">
        <ele>156.1</ele>
        <time>2014-03-09T14:27:23Z</time>
      </trkpt>
      <trkpt lat="43.768856" lon="1.568589">
        <ele>156.2</ele>
        <time>2014-03-09T14:27:33Z</time>
      </trkpt>
      <trkpt lat="43.768951" lon="1.568471">
        <ele>155.9</ele>
        <time>2014-03-09T14:27:43Z</time>
      </trkpt>
      <trkpt lat="43.769038" lon="1.568309">
        <ele>155.9</ele>
        <time>2014-03-09T14:27:55Z</time>
      </trkpt>
      <trkpt lat="43.769100" lon="1.568190">
        <ele>156.1</ele>
        <time>2014-03-09T14:28:05Z</time>
      </trkpt>
      <trkpt lat="43.769182" lon="1.568019">
        <ele>156.6</ele>
        <time>2014-03-09T14:28:17Z</time>
      </trkpt>
      <trkpt lat="43.769280" lon="1.567886">
        <ele>157.0</ele>
        <time>2014-03-09T14:28:29Z</time>
      </trkpt>
      <trkpt lat="43.769382" lon="1.567765">
        <ele>157.6</ele>
        <time>2014-03-09T14:28:40Z</time>
      </trkpt>
      <trkpt lat="43.769481" lon="1.567658">
        <ele>157.5</ele>
        <time>2014-03-09T14:28:49Z</time>
      </trkpt>
      <trkpt lat="43.769562" lon="1.567571">
        <ele>157.4</ele>
        <time>2014-03-09T14:28:57Z</time>
      </trkpt>
      <trkpt lat="43.769639" lon="1.567477">
        <ele>157.7</ele>
        <time>2014-03-09T14:29:06Z</time>
      </trkpt>
      <trkpt lat="43.769716" lon="1.567361">
        <ele>157.8</ele>
        <time>2014-03-09T14:29:15Z</time>
      </trkpt>
      <trkpt lat="43.769789" lon="1.567241">
        <ele>157.7</ele>
        <time>2014-03-09T14:29:24Z</time>
      </trkpt>
      <trkpt lat="43.769866" lon="1.567152">
        <ele>157.7</ele>
        <time>2014-03-09T14:29:32Z</time>
      </trkpt>
      <trkpt lat="43.769960" lon="1.567060">
        <ele>157.7</ele>
        <time>2014-03-09T14:29:40Z</time>
      </trkpt>
      <trkpt lat="43.770044" lon="1.566995">
        <ele>157.6</ele>
        <time>2014-03-09T14:29:48Z</time>
      </trkpt>
      <trkpt lat="43.770151" lon="1.566926">
        <ele>157.4</ele>
        <time>2014-03-09T14:29:59Z</time>
      </trkpt>
      <trkpt lat="43.770243" lon="1.566869">
        <ele>157.4</ele>
        <time>2014-03-09T14:30:08Z</time>
      </trkpt>
      <trkpt lat="43.770298" lon="1.566800">
        <ele>157.1</ele>
        <time>2014-03-09T14:30:21Z</time>
      </trkpt>
      <trkpt lat="43.770367" lon="1.566689">
        <ele>168.0</ele>
        <time>2014-03-09T14:30:49Z</time>
      </trkpt>
      <trkpt lat="43.770463" lon="1.566461">
        <ele>166.8</ele>
        <time>2014-03-09T14:31:01Z</time>
      </trkpt>
      <trkpt lat="43.770562" lon="1.566284">
        <ele>165.6</ele>
        <time>2014-03-09T14:31:15Z</time>
        <name>Clairiere des jeunes pins</name>
      </trkpt>
      <trkpt lat="43.770668" lon="1.566420">
        <ele>166.4</ele>
        <time>2014-03-09T14:31:27Z</time>
      </trkpt>
      <trkpt lat="43.770849" lon="1.566608">
        <ele>167.6</ele>
        <time>2014-03-09T14:31:38Z</time>
      </trkpt>
      <trkpt lat="43.771002" lon="1.566769">
        <ele>157.7</ele>
        <time>2014-03-09T14:31:48Z</time>
      </trkpt>
      <trkpt lat="43.771104" lon="1.566829">
        <ele>158.0</ele>
        <time>2014-03-09T14:31:58Z</time>
      </trkpt>
      <trkpt lat="43.771200" lon="1.566928">
        <ele>157.9</ele>
        <time>2014-03-09T14:32:07Z</time>
      </trkpt>
      <trkpt lat="43.771296" lon="1.567014">
        <ele>158.4</ele>
        <time>2014-03-09T14:32:16Z</time>
      </trkpt>
      <trkpt lat="43.771390" lon="1.567113">
        <ele>158.5</ele>
        <time>2014-03-09T14:32:26Z</time>
      </trkpt>
      <trkpt lat="43.771477" lon="1.567210">
        <ele>158.7</ele>
        <time>2014-03-09T14:32:35Z</time>
      </trkpt>
      <trkpt lat="43.771570" lon="1.567323">
        <ele>159.0</ele>
        <time>2014-03-09T14:32:45Z</time>
      </trkpt>
      <trkpt lat="43.771660" lon="1.567424">
        <ele>159.3</ele>
        <time>2014-03-09T14:32:55Z</time>
      </trkpt>
      <trkpt lat="43.771742" lon="1.567528">
        <ele>159.5</ele>
        <time>2014-03-09T14:33:05Z</time>
      </trkpt>
      <trkpt lat="43.771850" lon="1.567653">
        <ele>160.1</ele>
        <time>2014-03-09T14:33:17Z</time>
      </trkpt>
      <trkpt lat="43.771889" lon="1.567793">
        <ele>159.9</ele>
        <time>2014-03-09T14:33:28Z</time>
      </trkpt>
      <trkpt lat="43.771909" lon="1.567934">
        <ele>159.9</ele>
        <time>2014-03-09T14:33:37Z</time>
      </trkpt>
      <trkpt lat="43.771959" lon="1.568081">
        <ele>160.0</ele>
        <time>2014-03-09T14:33:46Z</time>
      </trkpt>
      <trkpt lat="43.772045" lon="1.568222">
        <ele>160.0</ele>
        <time>2014-03-09T14:33:57Z</time>
      </trkpt>
      <trkpt lat="43.772149" lon="1.568368">
        <ele>159.5</ele>
        <time>2014-03-09T14:34:07Z</time>
      </trkpt>
      <trkpt lat="43.772232" lon="1.568488">
        <ele>159.2</ele>
        <time>2014-03-09T14:34:18Z</time>
      </trkpt>
      <trkpt lat="43.772331" lon="1.568573">
        <ele>159.2</ele>
        <time>2014-03-09T14:34:30Z</time>
      </trkpt>
      <trkpt lat="43.772312" lon="1.568466">
        <ele>159.2</ele>
        <time>2014-03-09T14:34:50Z</time>
      </trkpt>
      <trkpt lat="43.772320" lon="1.568538">
        <ele>159.4</ele>
        <time>2014-03-09T14:35:12Z</time>
      </trkpt>
      <trkpt lat="43.772303" lon="1.568577">
        <ele>159.2</ele>
        <time>2014-03-09T14:35:43Z</time>
      </trkpt>
      <trkpt lat="43.772355" lon="1.568736">
        <ele>158.7</ele>
        <time>2014-03-09T14:35:55Z</time>
      </trkpt>
      <trkpt lat="43.772464" lon="1.568823">
        <ele>158.2</ele>
        <time>2014-03-09T14:36:06Z</time>
      </trkpt>
      <trkpt lat="43.772531" lon="1.568931">
        <ele>157.6</ele>
        <time>2014-03-09T14:36:17Z</time>
      </trkpt>
      <trkpt lat="43.772639" lon="1.569030">
        <ele>156.8</ele>
        <time>2014-03-09T14:36:30Z</time>
      </trkpt>
      <trkpt lat="43.772727" lon="1.569188">
        <ele>155.8</ele>
        <time>2014-03-09T14:36:42Z</time>
      </trkpt>
      <trkpt lat="43.772808" lon="1.569312">
        <ele>155.0</ele>
        <time>2014-03-09T14:36:53Z</time>
      </trkpt>
      <trkpt lat="43.772879" lon="1.569446">
        <ele>154.6</ele>
        <time>2014-03-09T14:37:03Z</time>
      </trkpt>
      <trkpt lat="43.772982" lon="1.569508">
        <ele>153.2</ele>
        <time>2014-03-09T14:37:23Z</time>
      </trkpt>
      <trkpt lat="43.773101" lon="1.569576">
        <ele>153.7</ele>
        <time>2014-03-09T14:37:42Z</time>
      </trkpt>
      <trkpt lat="43.773216" lon="1.569661">
        <ele>153.3</ele>
        <time>2014-03-09T14:37:54Z</time>
      </trkpt>
      <trkpt lat="43.773309" lon="1.569734">
        <ele>153.1</ele>
        <time>2014-03-09T14:38:05Z</time>
      </trkpt>
      <trkpt lat="43.773438" lon="1.569829">
        <ele>152.5</ele>
        <time>2014-03-09T14:38:21Z</time>
      </trkpt>
      <trkpt lat="43.773585" lon="1.569943">
        <ele>152.2</ele>
        <time>2014-03-09T14:38:33Z</time>
      </trkpt>
      <trkpt lat="43.773683" lon="1.570037">
        <ele>152.3</ele>
        <time>2014-03-09T14:38:45Z</time>
      </trkpt>
      <trkpt lat="43.773817" lon="1.570112">
        <ele>152.0</ele>
        <time>2014-03-09T14:38:57Z</time>
      </trkpt>
      <trkpt lat="43.773989" lon="1.570148">
        <ele>151.7</ele>
        <time>2014-03-09T14:39:10Z</time>
      </trkpt>
      <trkpt lat="43.774096" lon="1.570181">
        <ele>151.6</ele>
        <time>2014-03-09T14:39:23Z</time>
      </trkpt>
      <trkpt lat="43.774201" lon="1.570282">
        <ele>152.0</ele>
        <time>2014-03-09T14:39:37Z</time>
      </trkpt>
      <trkpt lat="43.774295" lon="1.570406">
        <ele>152.0</ele>
        <time>2014-03-09T14:39:46Z</time>
      </trkpt>
      <trkpt lat="43.774366" lon="1.570524">
        <ele>151.7</ele>
        <time>2014-03-09T14:39:54Z</time>
      </trkpt>
      <trkpt lat="43.774437" lon="1.570631">
        <ele>151.4</ele>
        <time>2014-03-09T14:40:04Z</time>
      </trkpt>
      <trkpt lat="43.774538" lon="1.570745">
        <ele>151.3</ele>
        <time>2014-03-09T14:40:24Z</time>
      </trkpt>
      <trkpt lat="43.774637" lon="1.570820">
        <ele>151.4</ele>
        <time>2014-03-09T14:40:42Z</time>
      </trkpt>
      <trkpt lat="43.774678" lon="1.570934">
        <ele>151.4</ele>
        <time>2014-03-09T14:40:53Z</time>
      </trkpt>
      <trkpt lat="43.774735" lon="1.571068">
        <ele>151.2</ele>
        <time>2014-03-09T14:41:05Z</time>
      </trkpt>
      <trkpt lat="43.774796" lon="1.571220">
        <ele>151.0</ele>
        <time>2014-03-09T14:41:16Z</time>
      </trkpt>
      <trkpt lat="43.774870" lon="1.571341">
        <ele>151.0</ele>
        <time>2014-03-09T14:41:27Z</time>
      </trkpt>
      <trkpt lat="43.774930" lon="1.571485">
        <ele>150.9</ele>
        <time>2014-03-09T14:41:40Z</time>
      </trkpt>
      <trkpt lat="43.775041" lon="1.571542">
        <ele>151.0</ele>
        <time>2014-03-09T14:41:52Z</time>
      </trkpt>
      <trkpt lat="43.775181" lon="1.571561">
        <ele>150.8</ele>
        <time>2014-03-09T14:42:06Z</time>
      </trkpt>
      <trkpt lat="43.775287" lon="1.571665">
        <ele>151.1</ele>
        <time>2014-03-09T14:42:21Z</time>
      </trkpt>
      <trkpt lat="43.775357" lon="1.571834">
        <ele>151.3</ele>
        <time>2014-03-09T14:42:33Z</time>
      </trkpt>
      <trkpt lat="43.775464" lon="1.571960">
        <ele>151.2</ele>
        <time>2014-03-09T14:42:45Z</time>
      </trkpt>
      <trkpt lat="43.775598" lon="1.572048">
        <ele>151.3</ele>
        <time>2014-03-09T14:42:59Z</time>
      </trkpt>
      <trkpt lat="43.775753" lon="1.572078">
        <ele>151.5</ele>
        <time>2014-03-09T14:43:13Z</time>
      </trkpt>
      <trkpt lat="43.775879" lon="1.572113">
        <ele>151.5</ele>
        <time>2014-03-09T14:43:28Z</time>
      </trkpt>
      <trkpt lat="43.775990" lon="1.572240">
        <ele>151.5</ele>
        <time>2014-03-09T14:43:43Z</time>
      </trkpt>
      <trkpt lat="43.776125" lon="1.572349">
        <ele>151.7</ele>
        <time>2014-03-09T14:43:55Z</time>
      </trkpt>
      <trkpt lat="43.776227" lon="1.572482">
        <ele>151.4</ele>
        <time>2014-03-09T14:44:07Z</time>
      </trkpt>
      <trkpt lat="43.776340" lon="1.572570">
        <ele>151.1</ele>
        <time>2014-03-09T14:44:21Z</time>
      </trkpt>
      <trkpt lat="43.776419" lon="1.572681">
        <ele>151.0</ele>
        <time>2014-03-09T14:44:34Z</time>
      </trkpt>
      <trkpt lat="43.776514" lon="1.572813">
        <ele>151.0</ele>
        <time>2014-03-09T14:44:45Z</time>
      </trkpt>
      <trkpt lat="43.776612" lon="1.572915">
        <ele>150.8</ele>
        <time>2014-03-09T14:44:57Z</time>
      </trkpt>
      <trkpt lat="43.776709" lon="1.572973">
        <ele>150.9</ele>
        <time>2014-03-09T14:45:08Z</time>
      </trkpt>
      <trkpt lat="43.776798" lon="1.573071">
        <ele>150.9</ele>
        <time>2014-03-09T14:45:19Z</time>
      </trkpt>
      <trkpt lat="43.776908" lon="1.573126">
        <ele>150.7</ele>
        <time>2014-03-09T14:45:31Z</time>
      </trkpt>
      <trkpt lat="43.777030" lon="1.573199">
        <ele>150.4</ele>
        <time>2014-03-09T14:45:46Z</time>
      </trkpt>
      <trkpt lat="43.777125" lon="1.573305">
        <ele>150.3</ele>
        <time>2014-03-09T14:45:57Z</time>
      </trkpt>
      <trkpt lat="43.777222" lon="1.573409">
        <ele>150.4</ele>
        <time>2014-03-09T14:46:11Z</time>
      </trkpt>
      <trkpt lat="43.777340" lon="1.573509">
        <ele>150.3</ele>
        <time>2014-03-09T14:46:25Z</time>
      </trkpt>
      <trkpt lat="43.777467" lon="1.573623">
        <ele>150.4</ele>
        <time>2014-03-09T14:46:37Z</time>
      </trkpt>
      <trkpt lat="43.777505" lon="1.573761">
        <ele>150.3</ele>
        <time>2014-03-09T14:46:52Z</time>
      </trkpt>
      <trkpt lat="43.777524" lon="1.573956">
        <ele>150.3</ele>
        <time>2014-03-09T14:47:08Z</time>
      </trkpt>
      <trkpt lat="43.777405" lon="1.574050">
        <ele>149.6</ele>
        <time>2014-03-09T14:47:25Z</time>
      </trkpt>
      <trkpt lat="43.777244" lon="1.574207">
        <ele>149.1</ele>
        <time>2014-03-09T14:47:41Z</time>
      </trkpt>
      <trkpt lat="43.777149" lon="1.574289">
        <ele>148.9</ele>
        <time>2014-03-09T14:47:59Z</time>
      </trkpt>
      <trkpt lat="43.777036" lon="1.574393">
        <ele>148.5</ele>
        <time>2014-03-09T14:48:13Z</time>
      </trkpt>
      <trkpt lat="43.776925" lon="1.574493">
        <ele>148.3</ele>
        <time>2014-03-09T14:48:26Z</time>
      </trkpt>
      <trkpt lat="43.776834" lon="1.574585">
        <ele>148.4</ele>
        <time>2014-03-09T14:48:38Z</time>
      </trkpt>
      <trkpt lat="43.776716" lon="1.574703">
        <ele>147.7</ele>
        <time>2014-03-09T14:48:52Z</time>
      </trkpt>
      <trkpt lat="43.776566" lon="1.574852">
        <ele>147.1</ele>
        <time>2014-03-09T14:49:06Z</time>
      </trkpt>
      <trkpt lat="43.776434" lon="1.574966">
        <ele>146.5</ele>
        <time>2014-03-09T14:49:20Z</time>
      </trkpt>
      <trkpt lat="43.776315" lon="1.575084">
        <ele>145.4</ele>
        <time>2014-03-09T14:49:33Z</time>
      </trkpt>
      <trkpt lat="43.776168" lon="1.575224">
        <ele>143.6</ele>
        <time>2014-03-09T14:49:48Z</time>
      </trkpt>
      <trkpt lat="43.776045" lon="1.575344">
        <ele>141.1</ele>
        <time>2014-03-09T14:50:03Z</time>
      </trkpt>
      <trkpt lat="43.775910" lon="1.575453">
        <ele>138.8</ele>
        <time>2014-03-09T14:50:18Z</time>
      </trkpt>
      <trkpt lat="43.775798" lon="1.575587">
        <ele>138.6</ele>
        <time>2014-03-09T14:50:32Z</time>
      </trkpt>
      <trkpt lat="43.775661" lon="1.575746">
        <ele>140.3</ele>
        <time>2014-03-09T14:50:48Z</time>
      </trkpt>
      <trkpt lat="43.775561" lon="1.575838">
        <ele>142.1</ele>
        <time>2014-03-09T14:51:00Z</time>
      </trkpt>
      <trkpt lat="43.775459" lon="1.575913">
        <ele>143.5</ele>
        <time>2014-03-09T14:51:13Z</time>
      </trkpt>
      <trkpt lat="43.775339" lon="1.576033">
        <ele>144.5</ele>
        <time>2014-03-09T14:51:28Z</time>
      </trkpt>
      <trkpt lat="43.775245" lon="1.576127">
        <ele>145.2</ele>
        <time>2014-03-09T14:51:40Z</time>
      </trkpt>
      <trkpt lat="43.775122" lon="1.576248">
        <ele>145.2</ele>
        <time>2014-03-09T14:51:52Z</time>
      </trkpt>
      <trkpt lat="43.775011" lon="1.576357">
        <ele>145.3</ele>
        <time>2014-03-09T14:52:05Z</time>
      </trkpt>
      <trkpt lat="43.774907" lon="1.576479">
        <ele>145.1</ele>
        <time>2014-03-09T14:52:16Z</time>
      </trkpt>
      <trkpt lat="43.774819" lon="1.576586">
        <ele>145.1</ele>
        <time>2014-03-09T14:52:27Z</time>
      </trkpt>
      <trkpt lat="43.774729" lon="1.576676">
        <ele>144.6</ele>
        <time>2014-03-09T14:52:40Z</time>
      </trkpt>
      <trkpt lat="43.774672" lon="1.576717">
        <ele>144.2</ele>
        <time>2014-03-09T14:53:08Z</time>
      </trkpt>
      <trkpt lat="43.774560" lon="1.576845">
        <ele>143.7</ele>
        <time>2014-03-09T14:53:18Z</time>
      </trkpt>
      <trkpt lat="43.774479" lon="1.576965">
        <ele>142.6</ele>
        <time>2014-03-09T14:53:27Z</time>
      </trkpt>
      <trkpt lat="43.774393" lon="1.577053">
        <ele>140.6</ele>
        <time>2014-03-09T14:53:37Z</time>
      </trkpt>
      <trkpt lat="43.774309" lon="1.577120">
        <ele>139.4</ele>
        <time>2014-03-09T14:53:47Z</time>
      </trkpt>
      <trkpt lat="43.774245" lon="1.577272">
        <ele>139.0</ele>
        <time>2014-03-09T14:53:58Z</time>
      </trkpt>
      <trkpt lat="43.774168" lon="1.577407">
        <ele>139.2</ele>
        <time>2014-03-09T14:54:07Z</time>
      </trkpt>
      <trkpt lat="43.774100" lon="1.577542">
        <ele>139.7</ele>
        <time>2014-03-09T14:54:16Z</time>
      </trkpt>
      <trkpt lat="43.774028" lon="1.577651">
        <ele>140.7</ele>
        <time>2014-03-09T14:54:24Z</time>
      </trkpt>
      <trkpt lat="43.773939" lon="1.577769">
        <ele>141.2</ele>
        <time>2014-03-09T14:54:34Z</time>
      </trkpt>
      <trkpt lat="43.773854" lon="1.577894">
        <ele>141.8</ele>
        <time>2014-03-09T14:54:44Z</time>
      </trkpt>
      <trkpt lat="43.773753" lon="1.578043">
        <ele>142.5</ele>
        <time>2014-03-09T14:54:56Z</time>
      </trkpt>
      <trkpt lat="43.773646" lon="1.578189">
        <ele>143.1</ele>
        <time>2014-03-09T14:55:09Z</time>
      </trkpt>
      <trkpt lat="43.773562" lon="1.578277">
        <ele>143.6</ele>
        <time>2014-03-09T14:55:21Z</time>
      </trkpt>
      <trkpt lat="43.773478" lon="1.578410">
        <ele>144.2</ele>
        <time>2014-03-09T14:55:36Z</time>
      </trkpt>
      <trkpt lat="43.773370" lon="1.578511">
        <ele>145.3</ele>
        <time>2014-03-09T14:55:51Z</time>
      </trkpt>
      <trkpt lat="43.773237" lon="1.578693">
        <ele>145.8</ele>
        <time>2014-03-09T14:56:05Z</time>
      </trkpt>
      <trkpt lat="43.773148" lon="1.578810">
        <ele>146.7</ele>
        <time>2014-03-09T14:56:17Z</time>
      </trkpt>
      <trkpt lat="43.773032" lon="1.578932">
        <ele>147.3</ele>
        <time>2014-03-09T14:56:32Z</time>
      </trkpt>
      <trkpt lat="43.772912" lon="1.579076">
        <ele>148.1</ele>
        <time>2014-03-09T14:56:46Z</time>
      </trkpt>
      <trkpt lat="43.772780" lon="1.579175">
        <ele>148.9</ele>
        <time>2014-03-09T14:56:59Z</time>
      </trkpt>
      <trkpt lat="43.772673" lon="1.579287">
        <ele>149.6</ele>
        <time>2014-03-09T14:57:12Z</time>
      </trkpt>
      <trkpt lat="43.772556" lon="1.579419">
        <ele>150.4</ele>
        <time>2014-03-09T14:57:26Z</time>
      </trkpt>
      <trkpt lat="43.772446" lon="1.579541">
        <ele>151.0</ele>
        <time>2014-03-09T14:57:39Z</time>
      </trkpt>
      <trkpt lat="43.772342" lon="1.579652">
        <ele>151.6</ele>
        <time>2014-03-09T14:57:50Z</time>
      </trkpt>
      <trkpt lat="43.772240" lon="1.579734">
        <ele>152.0</ele>
        <time>2014-03-09T14:58:02Z</time>
      </trkpt>
      <trkpt lat="43.772118" lon="1.579811">
        <ele>152.1</ele>
        <time>2014-03-09T14:58:16Z</time>
      </trkpt>
      <trkpt lat="43.771991" lon="1.579927">
        <ele>152.0</ele>
        <time>2014-03-09T14:58:30Z</time>
      </trkpt>
      <trkpt lat="43.771857" lon="1.580034">
        <ele>151.6</ele>
        <time>2014-03-09T14:58:45Z</time>
      </trkpt>
      <trkpt lat="43.771728" lon="1.580170">
        <ele>152.0</ele>
        <time>2014-03-09T14:59:00Z</time>
      </trkpt>
      <trkpt lat="43.771610" lon="1.580254">
        <ele>151.7</ele>
        <time>2014-03-09T14:59:12Z</time>
      </trkpt>
      <trkpt lat="43.771457" lon="1.580372">
        <ele>151.9</ele>
        <time>2014-03-09T14:59:28Z</time>
      </trkpt>
      <trkpt lat="43.771324" lon="1.580484">
        <ele>151.9</ele>
        <time>2014-03-09T14:59:41Z</time>
      </trkpt>
      <trkpt lat="43.771179" lon="1.580574">
        <ele>151.8</ele>
        <time>2014-03-09T14:59:54Z</time>
      </trkpt>
      <trkpt lat="43.771061" lon="1.580665">
        <ele>151.8</ele>
        <time>2014-03-09T15:00:06Z</time>
      </trkpt>
      <trkpt lat="43.770956" lon="1.580725">
        <ele>152.4</ele>
        <time>2014-03-09T15:00:16Z</time>
      </trkpt>
      <trkpt lat="43.770858" lon="1.580824">
        <ele>152.4</ele>
        <time>2014-03-09T15:00:28Z</time>
      </trkpt>
      <trkpt lat="43.770742" lon="1.580959">
        <ele>152.5</ele>
        <time>2014-03-09T15:00:39Z</time>
      </trkpt>
      <trkpt lat="43.770642" lon="1.581044">
        <ele>152.8</ele>
        <time>2014-03-09T15:00:48Z</time>
      </trkpt>
      <trkpt lat="43.770533" lon="1.581139">
        <ele>152.9</ele>
        <time>2014-03-09T15:00:56Z</time>
      </trkpt>
      <trkpt lat="43.770437" lon="1.581214">
        <ele>153.0</ele>
        <time>2014-03-09T15:01:04Z</time>
      </trkpt>
      <trkpt lat="43.770358" lon="1.581279">
        <ele>153.2</ele>
        <time>2014-03-09T15:01:11Z</time>
      </trkpt>
      <trkpt lat="43.770265" lon="1.581325">
        <ele>153.2</ele>
        <time>2014-03-09T15:01:20Z</time>
      </trkpt>
      <trkpt lat="43.770168" lon="1.581409">
        <ele>153.1</ele>
        <time>2014-03-09T15:01:30Z</time>
      </trkpt>
      <trkpt lat="43.770080" lon="1.581494">
        <ele>153.1</ele>
        <time>2014-03-09T15:01:40Z</time>
      </trkpt>
      <trkpt lat="43.769973" lon="1.581556">
        <ele>153.1</ele>
        <time>2014-03-09T15:01:51Z</time>
      </trkpt>
      <trkpt lat="43.769869" lon="1.581604">
        <ele>153.5</ele>
        <time>2014-03-09T15:02:01Z</time>
      </trkpt>
      <trkpt lat="43.769774" lon="1.581666">
        <ele>153.6</ele>
        <time>2014-03-09T15:02:12Z</time>
      </trkpt>
      <trkpt lat="43.769663" lon="1.581735">
        <ele>153.8</ele>
        <time>2014-03-09T15:02:23Z</time>
      </trkpt>
      <trkpt lat="43.769558" lon="1.581790">
        <ele>153.9</ele>
        <time>2014-03-09T15:02:34Z</time>
      </trkpt>
      <trkpt lat="43.769449" lon="1.581849">
        <ele>154.0</ele>
        <time>2014-03-09T15:02:44Z</time>
      </trkpt>
      <trkpt lat="43.769316" lon="1.581874">
        <ele>153.9</ele>
        <time>2014-03-09T15:02:59Z</time>
      </trkpt>
      <trkpt lat="43.769190" lon="1.581942">
        <ele>153.9</ele>
        <time>2014-03-09T15:03:10Z</time>
      </trkpt>
      <trkpt lat="43.769077" lon="1.581975">
        <ele>154.0</ele>
        <time>2014-03-09T15:03:21Z</time>
      </trkpt>
      <trkpt lat="43.768959" lon="1.582011">
        <ele>154.0</ele>
        <time>2014-03-09T15:03:34Z</time>
      </trkpt>
      <trkpt lat="43.768845" lon="1.582052">
        <ele>153.9</ele>
        <time>2014-03-09T15:03:46Z</time>
      </trkpt>
      <trkpt lat="43.768718" lon="1.582084">
        <ele>153.8</ele>
        <time>2014-03-09T15:03:58Z</time>
      </trkpt>
      <trkpt lat="43.768593" lon="1.582124">
        <ele>153.7</ele>
        <time>2014-03-09T15:04:09Z</time>
      </trkpt>
      <trkpt lat="43.768480" lon="1.582164">
        <ele>153.5</ele>
        <time>2014-03-09T15:04:19Z</time>
      </trkpt>
      <trkpt lat="43.768365" lon="1.582173">
        <ele>153.9</ele>
        <time>2014-03-09T15:04:31Z</time>
      </trkpt>
      <trkpt lat="43.768250" lon="1.582227">
        <ele>153.5</ele>
        <time>2014-03-09T15:04:45Z</time>
      </trkpt>
      <trkpt lat="43.768121" lon="1.582292">
        <ele>153.7</ele>
        <time>2014-03-09T15:04:57Z</time>
      </trkpt>
      <trkpt lat="43.768005" lon="1.582388">
        <ele>153.8</ele>
        <time>2014-03-09T15:05:12Z</time>
      </trkpt>
      <trkpt lat="43.767896" lon="1.582551">
        <ele>153.6</ele>
        <time>2014-03-09T15:05:26Z</time>
      </trkpt>
      <trkpt lat="43.767888" lon="1.582730">
        <ele>153.4</ele>
        <time>2014-03-09T15:05:36Z</time>
      </trkpt>
      <trkpt lat="43.767861" lon="1.582863">
        <ele>153.6</ele>
        <time>2014-03-09T15:05:46Z</time>
      </trkpt>
      <trkpt lat="43.767833" lon="1.583001">
        <ele>154.1</ele>
        <time>2014-03-09T15:05:58Z</time>
      </trkpt>
      <trkpt lat="43.767724" lon="1.583088">
        <ele>153.7</ele>
        <time>2014-03-09T15:06:12Z</time>
      </trkpt>
      <trkpt lat="43.767586" lon="1.583190">
        <ele>154.0</ele>
        <time>2014-03-09T15:06:24Z</time>
      </trkpt>
      <trkpt lat="43.767486" lon="1.583276">
        <ele>154.1</ele>
        <time>2014-03-09T15:06:36Z</time>
      </trkpt>
      <trkpt lat="43.767367" lon="1.583384">
        <ele>153.8</ele>
        <time>2014-03-09T15:06:47Z</time>
      </trkpt>
      <trkpt lat="43.767261" lon="1.583467">
        <ele>153.5</ele>
        <time>2014-03-09T15:06:59Z</time>
      </trkpt>
      <trkpt lat="43.767157" lon="1.583557">
        <ele>153.2</ele>
        <time>2014-03-09T15:07:11Z</time>
      </trkpt>
      <trkpt lat="43.767033" lon="1.583626">
        <ele>152.9</ele>
        <time>2014-03-09T15:07:24Z</time>
      </trkpt>
      <trkpt lat="43.766911" lon="1.583720">
        <ele>152.8</ele>
        <time>2014-03-09T15:07:37Z</time>
      </trkpt>
      <trkpt lat="43.766786" lon="1.583770">
        <ele>152.6</ele>
        <time>2014-03-09T15:07:52Z</time>
        <name>Parcours sportif</name>
      </trkpt>
      <trkpt lat="43.766738" lon="1.583796">
        <ele>152.4</ele>
        <time>2014-03-09T15:08:16Z</time>
      </trkpt>
      <trkpt lat="43.766688" lon="1.583697">
        <ele>152.4</ele>
        <time>2014-03-09T15:16:01Z</time>
      </trkpt>
      <trkpt lat="43.766558" lon="1.583651">
        <ele>152.4</ele>
        <time>2014-03-09T15:16:13Z</time>
      </trkpt>
      <trkpt lat="43.766427" lon="1.583626">
        <ele>151.9</ele>
        <time>2014-03-09T15:16:26Z</time>
      </trkpt>
      <trkpt lat="43.766315" lon="1.583544">
        <ele>150.7</ele>
        <time>2014-03-09T15:16:39Z</time>
      </trkpt>
      <trkpt lat="43.766244" lon="1.583364">
        <ele>150.6</ele>
        <time>2014-03-09T15:16:54Z</time>
      </trkpt>
      <trkpt lat="43.766182" lon="1.583205">
        <ele>151.1</ele>
        <time>2014-03-09T15:17:07Z</time>
      </trkpt>
      <trkpt lat="43.766093" lon="1.583049">
        <ele>151.7</ele>
        <time>2014-03-09T15:17:24Z</time>
      </trkpt>
      <trkpt lat="43.765985" lon="1.582871">
        <ele>152.6</ele>
        <time>2014-03-09T15:17:42Z</time>
      </trkpt>
      <trkpt lat="43.765885" lon="1.582769">
        <ele>153.5</ele>
        <time>2014-03-09T15:17:56Z</time>
      </trkpt>
      <trkpt lat="43.765822" lon="1.582612">
        <ele>154.1</ele>
        <time>2014-03-09T15:18:12Z</time>
      </trkpt>
      <trkpt lat="43.765712" lon="1.582413">
        <ele>154.6</ele>
        <time>2014-03-09T15:18:28Z</time>
      </trkpt>
      <trkpt lat="43.765627" lon="1.582268">
        <ele>154.9</ele>
        <time>2014-03-09T15:18:42Z</time>
      </trkpt>
      <trkpt lat="43.765542" lon="1.582114">
        <ele>155.4</ele>
        <time>2014-03-09T15:18:56Z</time>
      </trkpt>
      <trkpt lat="43.765433" lon="1.582032">
        <ele>156.3</ele>
        <time>2014-03-09T15:19:09Z</time>
      </trkpt>
      <trkpt lat="43.765340" lon="1.581989">
        <ele>158.2</ele>
        <time>2014-03-09T15:19:27Z</time>
      </trkpt>
      <trkpt lat="43.765218" lon="1.581969">
        <ele>158.6</ele>
        <time>2014-03-09T15:19:42Z</time>
      </trkpt>
      <trkpt lat="43.765068" lon="1.581957">
        <ele>158.8</ele>
        <time>2014-03-09T15:19:56Z</time>
      </trkpt>
      <trkpt lat="43.764912" lon="1.581990">
        <ele>159.5</ele>
        <time>2014-03-09T15:20:09Z</time>
      </trkpt>
      <trkpt lat="43.764790" lon="1.581998">
        <ele>159.5</ele>
        <time>2014-03-09T15:20:22Z</time>
      </trkpt>
      <trkpt lat="43.764672" lon="1.582035">
        <ele>159.3</ele>
        <time>2014-03-09T15:20:36Z</time>
      </trkpt>
      <trkpt lat="43.764544" lon="1.582057">
        <ele>159.1</ele>
        <time>2014-03-09T15:20:51Z</time>
      </trkpt>
      <trkpt lat="43.764375" lon="1.582088">
        <ele>159.0</ele>
        <time>2014-03-09T15:21:04Z</time>
      </trkpt>
      <trkpt lat="43.764234" lon="1.582075">
        <ele>158.0</ele>
        <time>2014-03-09T15:21:17Z</time>
      </trkpt>
      <trkpt lat="43.764116" lon="1.581981">
        <ele>157.6</ele>
        <time>2014-03-09T15:21:31Z</time>
      </trkpt>
      <trkpt lat="43.764024" lon="1.581909">
        <ele>158.4</ele>
        <time>2014-03-09T15:21:41Z</time>
      </trkpt>
      <trkpt lat="43.763927" lon="1.581828">
        <ele>158.0</ele>
        <time>2014-03-09T15:21:53Z</time>
      </trkpt>
      <trkpt lat="43.763822" lon="1.581749">
        <ele>157.4</ele>
        <time>2014-03-09T15:22:05Z</time>
      </trkpt>
      <trkpt lat="43.763712" lon="1.581661">
        <ele>157.1</ele>
        <time>2014-03-09T15:22:17Z</time>
      </trkpt>
      <trkpt lat="43.763655" lon="1.581516">
        <ele>157.2</ele>
        <time>2014-03-09T15:22:29Z</time>
      </trkpt>
      <trkpt lat="43.763619" lon="1.581321">
        <ele>157.9</ele>
        <time>2014-03-09T15:22:43Z</time>
      </trkpt>
      <trkpt lat="43.763613" lon="1.581191">
        <ele>158.5</ele>
        <time>2014-03-09T15:23:03Z</time>
      </trkpt>
      <trkpt lat="43.763522" lon="1.581177">
        <ele>157.4</ele>
        <time>2014-03-09T15:23:20Z</time>
      </trkpt>
      <trkpt lat="43.763368" lon="1.581256">
        <ele>156.2</ele>
        <time>2014-03-09T15:23:35Z</time>
      </trkpt>
      <trkpt lat="43.763252" lon="1.581313">
        <ele>154.7</ele>
        <time>2014-03-09T15:23:47Z</time>
      </trkpt>
      <trkpt lat="43.763120" lon="1.581222">
        <ele>153.8</ele>
        <time>2014-03-09T15:24:02Z</time>
        <name>Parking Sud</name>
      </trkpt>
      <trkpt lat="43.763049" lon="1.581055">
        <ele>154.3</ele>
        <time>2014-03-09T15:24:17Z</time>
      </trkpt>
      <trkpt lat="43.762961" lon="1.580943">
        <ele>154.8</ele>
        <time>2014-03-09T15:24:38Z</time>
      </trkpt>
      <trkpt lat="43.762980" lon="1.580856">
        <ele>154.9</ele>
        <time>2014-03-09T15:26:04Z</time>
      </trkpt>
      <trkpt lat="43.762943" lon="1.580791">
        <ele>154.5</ele>
        <time>2014-03-09T15:26:23Z</time>
      </trkpt>
      <trkpt lat="43.762880" lon="1.580718">
        <ele>156.3</ele>
        <time>2014-03-09T15:27:19Z</time>
      </trkpt>
      <trkpt lat="43.762749" lon="1.580623">
        <ele>156.5</ele>
        <time>2014-03-09T15:27:32Z</time>
      </trkpt>
      <trkpt lat="43.762692" lon="1.580487">
        <ele>157.3</ele>
        <time>2014-03-09T15:27:47Z</time>
      </trkpt>
      <trkpt lat="43.762639" lon="1.580280">
        <ele>157.4</ele>
        <time>2014-03-09T15:28:01Z</time>
      </trkpt>
      <trkpt lat="43.762509" lon="1.580097">
        <ele>157.9</ele>
        <time>2014-03-09T15:28:14Z</time>
      </trkpt>
      <trkpt lat="43.762460" lon="1.579964">
        <ele>158.2</ele>
        <time>2014-03-09T15:28:29Z</time>
      </trkpt>
      <trkpt lat="43.762362" lon="1.579754">
        <ele>159.0</ele>
        <time>2014-03-09T15:28:44Z</time>
      </trkpt>
      <trkpt lat="43.762307" lon="1.579576">
        <ele>159.3</ele>
        <time>2014-03-09T15:29:01Z</time>
      </trkpt>
      <trkpt lat="43.762320" lon="1.579397">
        <ele>159.6</ele>
        <time>2014-03-09T15:29:15Z</time>
      </trkpt>
      <trkpt lat="43.762256" lon="1.579206">
        <ele>160.0</ele>
        <time>2014-03-09T15:29:31Z</time>
      </trkpt>
      <trkpt lat="43.762182" lon="1.579019">
        <ele>160.9</ele>
        <time>2014-03-09T15:29:47Z</time>
      </trkpt>
      <trkpt lat="43.762148" lon="1.578851">
        <ele>161.2</ele>
        <time>2014-03-09T15:30:00Z</time>
      </trkpt>
      <trkpt lat="43.762147" lon="1.578641">
        <ele>161.2</ele>
        <time>2014-03-09T15:30:14Z</time>
      </trkpt>
      <trkpt lat="43.762145" lon="1.578491">
        <ele>161.4</ele>
        <time>2014-03-09T15:30:28Z</time>
      </trkpt>
      <trkpt lat="43.762206" lon="1.578311">
        <ele>160.7</ele>
        <time>2014-03-09T15:30:41Z</time>
      </trkpt>
      <trkpt lat="43.762319" lon="1.578223">
        <ele>159.6</ele>
        <time>2014-03-09T15:30:56Z</time>
      </trkpt>
      <trkpt lat="43.762329" lon="1.578136">
        <ele>160.2</ele>
        <time>2014-03-09T15:31:18Z</time>
      </trkpt>
      <trkpt lat="43.762226" lon="1.577950">
        <ele>159.9</ele>
        <time>2014-03-09T15:31:31Z</time>
      </trkpt>
      <trkpt lat="43.762152" lon="1.577850">
        <ele>160.3</ele>
        <time>2014-03-09T15:31:43Z</time>
      </trkpt>
      <trkpt lat="43.762055" lon="1.577739">
        <ele>161.4</ele>
        <time>2014-03-09T15:31:54Z</time>
      </trkpt>
      <trkpt lat="43.761975" lon="1.577638">
        <ele>161.2</ele>
        <time>2014-03-09T15:32:04Z</time>
      </trkpt>
      <trkpt lat="43.761869" lon="1.577614">
        <ele>161.3</ele>
        <time>2014-03-09T15:32:15Z</time>
      </trkpt>
      <trkpt lat="43.761768" lon="1.577554">
        <ele>161.4</ele>
        <time>2014-03-09T15:32:25Z</time>
      </trkpt>
      <trkpt lat="43.761694" lon="1.577461">
        <ele>161.6</ele>
        <time>2014-03-09T15:32:38Z</time>
      </trkpt>
      <trkpt lat="43.761659" lon="1.577436">
        <ele>161.6</ele>
        <time>2014-03-09T15:33:17Z</time>
      </trkpt>
      <trkpt lat="43.761652" lon="1.577368">
        <ele>162.0</ele>
        <time>2014-03-09T15:33:52Z</time>
      </trkpt>
      <trkpt lat="43.761573" lon="1.577227">
        <ele>161.8</ele>
        <time>2014-03-09T15:34:05Z</time>
      </trkpt>
      <trkpt lat="43.761478" lon="1.577099">
        <ele>161.8</ele>
        <time>2014-03-09T15:34:17Z</time>
      </trkpt>
      <trkpt lat="43.761395" lon="1.576963">
        <ele>162.0</ele>
        <time>2014-03-09T15:34:30Z</time>
      </trkpt>
      <trkpt lat="43.761323" lon="1.576827">
        <ele>162.7</ele>
        <time>2014-03-09T15:34:41Z</time>
      </trkpt>
      <trkpt lat="43.761241" lon="1.576682">
        <ele>162.8</ele>
        <time>2014-03-09T15:34:52Z</time>
      </trkpt>
      <trkpt lat="43.761178" lon="1.576570">
        <ele>163.3</ele>
        <time>2014-03-09T15:35:05Z</time>
      </trkpt>
      <trkpt lat="43.761170" lon="1.576440">
        <ele>163.1</ele>
        <time>2014-03-09T15:35:15Z</time>
      </trkpt>
      <trkpt lat="43.761188" lon="1.576283">
        <ele>162.9</ele>
        <time>2014-03-09T15:35:25Z</time>
      </trkpt>
      <trkpt lat="43.761234" lon="1.576165">
        <ele>162.5</ele>
        <time>2014-03-09T15:35:35Z</time>
      </trkpt>
      <trkpt lat="43.761304" lon="1.576071">
        <ele>162.1</ele>
        <time>2014-03-09T15:35:45Z</time>
      </trkpt>
      <trkpt lat="43.761336" lon="1.575938">
        <ele>162.2</ele>
        <time>2014-03-09T15:35:54Z</time>
      </trkpt>
      <trkpt lat="43.761423" lon="1.575886">
        <ele>162.7</ele>
        <time>2014-03-09T15:36:04Z</time>
      </trkpt>
      <trkpt lat="43.761512" lon="1.575828">
        <ele>162.9</ele>
        <time>2014-03-09T15:36:16Z</time>
      </trkpt>
      <trkpt lat="43.761572" lon="1.575711">
        <ele>163.1</ele>
        <time>2014-03-09T15:36:28Z</time>
      </trkpt>
      <trkpt lat="43.761625" lon="1.575587">
        <ele>162.9</ele>
        <time>2014-03-09T15:36:40Z</time>
      </trkpt>
      <trkpt lat="43.761703" lon="1.575495">
        <ele>163.0</ele>
        <time>2014-03-09T15:36:53Z</time>
      </trkpt>
      <trkpt lat="43.761802" lon="1.575415">
        <ele>163.1</ele>
        <time>2014-03-09T15:37:08Z</time>
      </trkpt>
      <trkpt lat="43.761903" lon="1.575323">
        <ele>162.6</ele>
        <time>2014-03-09T15:37:23Z</time>
      </trkpt>
      <trkpt lat="43.761970" lon="1.575201">
        <ele>163.0</ele>
        <time>2014-03-09T15:37:39Z</time>
      </trkpt>
      <trkpt lat="43.762037" lon="1.575126">
        <ele>163.0</ele>
        <time>2014-03-09T15:37:56Z</time>
      </trkpt>
      <trkpt lat="43.762131" lon="1.575056">
        <ele>162.3</ele>
        <time>2014-03-09T15:38:14Z</time>
      </trkpt>
      <trkpt lat="43.762223" lon="1.574985">
        <ele>162.8</ele>
        <time>2014-03-09T15:38:32Z</time>
      </trkpt>
      <trkpt lat="43.762331" lon="1.574935">
        <ele>162.6</ele>
        <time>2014-03-09T15:38:48Z</time>
      </trkpt>
      <trkpt lat="43.762390" lon="1.574909">
        <ele>162.6</ele>
        <time>2014-03-09T15:39:06Z</time>
      </trkpt>
      <trkpt lat="43.762371" lon="1.574905">
        <ele>162.6</ele>
        <time>2014-03-09T15:39:54Z</time>
      </trkpt>
      <trkpt lat="43.762315" lon="1.574778">
        <ele>162.6</ele>
        <time>2014-03-09T15:40:07Z</time>
      </trkpt>
      <trkpt lat="43.762254" lon="1.574629">
        <ele>162.3</ele>
        <time>2014-03-09T15:40:17Z</time>
      </trkpt>
      <trkpt lat="43.762193" lon="1.574465">
        <ele>161.7</ele>
        <time>2014-03-09T15:40:26Z</time>
      </trkpt>
      <trkpt lat="43.762139" lon="1.574335">
        <ele>161.7</ele>
        <time>2014-03-09T15:40:34Z</time>
      </trkpt>
      <trkpt lat="43.762096" lon="1.574227">
        <ele>161.0</ele>
        <time>2014-03-09T15:40:43Z</time>
      </trkpt>
      <trkpt lat="43.762039" lon="1.574106">
        <ele>160.9</ele>
        <time>2014-03-09T15:40:53Z</time>
      </trkpt>
      <trkpt lat="43.761987" lon="1.573980">
        <ele>160.7</ele>
        <time>2014-03-09T15:41:04Z</time>
      </trkpt>
      <trkpt lat="43.761922" lon="1.573879">
        <ele>160.8</ele>
        <time>2014-03-09T15:41:14Z</time>
      </trkpt>
      <trkpt lat="43.761859" lon="1.573770">
        <ele>161.1</ele>
        <time>2014-03-09T15:41:23Z</time>
      </trkpt>
      <trkpt lat="43.761803" lon="1.573645">
        <ele>160.9</ele>
        <time>2014-03-09T15:41:33Z</time>
      </trkpt>
      <trkpt lat="43.761754" lon="1.573531">
        <ele>161.0</ele>
        <time>2014-03-09T15:41:42Z</time>
      </trkpt>
      <trkpt lat="43.761703" lon="1.573427">
        <ele>161.2</ele>
        <time>2014-03-09T15:41:51Z</time>
      </trkpt>
      <trkpt lat="43.761665" lon="1.573316">
        <ele>161.5</ele>
        <time>2014-03-09T15:41:59Z</time>
      </trkpt>
      <trkpt lat="43.761615" lon="1.573205">
        <ele>161.4</ele>
        <time>2014-03-09T15:42:11Z</time>
      </trkpt>
      <trkpt lat="43.761562" lon="1.573079">
        <ele>161.6</ele>
        <time>2014-03-09T15:42:21Z</time>
      </trkpt>
      <trkpt lat="43.761508" lon="1.572954">
        <ele>161.7</ele>
        <time>2014-03-09T15:42:31Z</time>
      </trkpt>
      <trkpt lat="43.761477" lon="1.572819">
        <ele>161.7</ele>
        <time>2014-03-09T15:42:40Z</time>
      </trkpt>
      <trkpt lat="43.761381" lon="1.572627">
        <ele>161.6</ele>
        <time>2014-03-09T15:43:35Z</time>
      </trkpt>
      <trkpt lat="43.761334" lon="1.572537">
        <ele>161.0</ele>
        <time>2014-03-09T15:43:44Z</time>
      </trkpt>
      <trkpt lat="43.761264" lon="1.572441">
        <ele>159.6</ele>
        <time>2014-03-09T15:43:53Z</time>
      </trkpt>
      <trkpt lat="43.761187" lon="1.572321">
        <ele>158.2</ele>
        <time>2014-03-09T15:44:03Z</time>
      </trkpt>
      <trkpt lat="43.761103" lon="1.572202">
        <ele>157.6</ele>
        <time>2014-03-09T15:44:13Z</time>
      </trkpt>
      <trkpt lat="43.761042" lon="1.572071">
        <ele>157.4</ele>
        <time>2014-03-09T15:44:22Z</time>
      </trkpt>
      <trkpt lat="43.760987" lon="1.571949">
        <ele>158.1</ele>
        <time>2014-03-09T15:44:31Z</time>
      </trkpt>
      <trkpt lat="43.760941" lon="1.571823">
        <ele>158.7</ele>
        <time>2014-03-09T15:44:40Z</time>
      </trkpt>
      <trkpt lat="43.760886" lon="1.571710">
        <ele>158.7</ele>
        <time>2014-03-09T15:44:49Z</time>
      </trkpt>
      <trkpt lat="43.760826" lon="1.571582">
        <ele>158.4</ele>
        <time>2014-03-09T15:44:59Z</time>
      </trkpt>
      <trkpt lat="43.760755" lon="1.571458">
        <ele>159.3</ele>
        <time>2014-03-09T15:45:09Z</time>
      </trkpt>
      <trkpt lat="43.760701" lon="1.571314">
        <ele>160.5</ele>
        <time>2014-03-09T15:45:20Z</time>
      </trkpt>
      <trkpt lat="43.760663" lon="1.571189">
        <ele>161.0</ele>
        <time>2014-03-09T15:45:43Z</time>
      </trkpt>
      <trkpt lat="43.760626" lon="1.571113">
        <ele>161.5</ele>
        <time>2014-03-09T15:46:29Z</time>
      </trkpt>
      <trkpt lat="43.760540" lon="1.570970">
        <ele>161.7</ele>
        <time>2014-03-09T15:46:44Z</time>
      </trkpt>
      <trkpt lat="43.760486" lon="1.570810">
        <ele>161.8</ele>
        <time>2014-03-09T15:46:56Z</time>
      </trkpt>
      <trkpt lat="43.760424" lon="1.570649">
        <ele>162.1</ele>
        <time>2014-03-09T15:47:09Z</time>
      </trkpt>
      <trkpt lat="43.760368" lon="1.570507">
        <ele>161.6</ele>
        <time>2014-03-09T15:47:21Z</time>
      </trkpt>
      <trkpt lat="43.760251" lon="1.570302">
        <ele>160.5</ele>
        <time>2014-03-09T15:47:37Z</time>
      </trkpt>
      <trkpt lat="43.760148" lon="1.570104">
        <ele>160.2</ele>
        <time>2014-03-09T15:47:52Z</time>
      </trkpt>
      <trkpt lat="43.760077" lon="1.569926">
        <ele>161.0</ele>
        <time>2014-03-09T15:48:06Z</time>
      </trkpt>
      <trkpt lat="43.759979" lon="1.569713">
        <ele>162.0</ele>
        <time>2014-03-09T15:48:21Z</time>
      </trkpt>
      <trkpt lat="43.759873" lon="1.569524">
        <ele>162.2</ele>
        <time>2014-03-09T15:48:34Z</time>
      </trkpt>
      <trkpt lat="43.759793" lon="1.569315">
        <ele>162.6</ele>
        <time>2014-03-09T15:48:50Z</time>
      </trkpt>
      <trkpt lat="43.759688" lon="1.569056">
        <ele>162.5</ele>
        <time>2014-03-09T15:49:03Z</time>
      </trkpt>
      <trkpt lat="43.759608" lon="1.568864">
        <ele>162.5</ele>
        <time>2014-03-09T15:49:17Z</time>
      </trkpt>
      <trkpt lat="43.759487" lon="1.568606">
        <ele>163.1</ele>
        <time>2014-03-09T15:49:35Z</time>
      </trkpt>
      <trkpt lat="43.759382" lon="1.568395">
        <ele>162.8</ele>
        <time>2014-03-09T15:49:50Z</time>
      </trkpt>
      <trkpt lat="43.759292" lon="1.568192">
        <ele>162.8</ele>
        <time>2014-03-09T15:50:04Z</time>
      </trkpt>
      <trkpt lat="43.759238" lon="1.568001">
        <ele>162.8</ele>
        <time>2014-03-09T15:50:17Z</time>
      </trkpt>
      <trkpt lat="43.759272" lon="1.567796">
        <ele>163.1</ele>
        <time>2014-03-09T15:50:29Z</time>
      </trkpt>
      <trkpt lat="43.759395" lon="1.567678">
        <ele>163.0</ele>
        <time>2014-03-09T15:50:42Z</time>
      </trkpt>
      <trkpt lat="43.759531" lon="1.567605">
        <ele>163.1</ele>
        <time>2014-03-09T15:50:53Z</time>
      </trkpt>
      <trkpt lat="43.759685" lon="1.567534">
        <ele>162.9</ele>
        <time>2014-03-09T15:51:05Z</time>
      </trkpt>
      <trkpt lat="43.759816" lon="1.567442">
        <ele>163.1</ele>
        <time>2014-03-09T15:51:18Z</time>
      </trkpt>
      <trkpt lat="43.759929" lon="1.567368">
        <ele>162.8</ele>
        <time>2014-03-09T15:51:30Z</time>
      </trkpt>
      <trkpt lat="43.760080" lon="1.567255">
        <ele>162.8</ele>
        <time>2014-03-09T15:51:42Z</time>
      </trkpt>
      <trkpt lat="43.760204" lon="1.567151">
        <ele>162.5</ele>
        <time>2014-03-09T15:51:59Z</time>
      </trkpt>
      <trkpt lat="43.760372" lon="1.567078">
        <ele>162.4</ele>
        <time>2014-03-09T15:52:11Z</time>
      </trkpt>
      <trkpt lat="43.760494" lon="1.567054">
        <ele>162.3</ele>
        <time>2014-03-09T15:52:22Z</time>
      </trkpt>
      <trkpt lat="43.760587" lon="1.566981">
        <ele>162.0</ele>
        <time>2014-03-09T15:52:33Z</time>
      </trkpt>
      <trkpt lat="43.760714" lon="1.566925">
        <ele>161.9</ele>
        <time>2014-03-09T15:52:44Z</time>
      </trkpt>
      <trkpt lat="43.760836" lon="1.566866">
        <ele>162.2</ele>
        <time>2014-03-09T15:52:55Z</time>
      </trkpt>
      <trkpt lat="43.760965" lon="1.566809">
        <ele>162.2</ele>
        <time>2014-03-09T15:53:06Z</time>
      </trkpt>
      <trkpt lat="43.761099" lon="1.566734">
        <ele>162.3</ele>
        <time>2014-03-09T15:53:17Z</time>
      </trkpt>
      <trkpt lat="43.761196" lon="1.566666">
        <ele>162.5</ele>
        <time>2014-03-09T15:53:30Z</time>
      </trkpt>
      <trkpt lat="43.761312" lon="1.566637">
        <ele>163.0</ele>
        <time>2014-03-09T15:53:42Z</time>
      </trkpt>
      <trkpt lat="43.761459" lon="1.566586">
        <ele>162.8</ele>
        <time>2014-03-09T15:53:52Z</time>
      </trkpt>
      <trkpt lat="43.761559" lon="1.566495">
        <ele>162.4</ele>
        <time>2014-03-09T15:54:00Z</time>
      </trkpt>
      <trkpt lat="43.761664" lon="1.566403">
        <ele>162.0</ele>
        <time>2014-03-09T15:54:11Z</time>
      </trkpt>
      <trkpt lat="43.761769" lon="1.566327">
        <ele>161.6</ele>
        <time>2014-03-09T15:54:19Z</time>
      </trkpt>
      <trkpt lat="43.761873" lon="1.566296">
        <ele>161.4</ele>
        <time>2014-03-09T15:54:28Z</time>
      </trkpt>
      <trkpt lat="43.761980" lon="1.566252">
        <ele>161.2</ele>
        <time>2014-03-09T15:54:37Z</time>
      </trkpt>
      <trkpt lat="43.762104" lon="1.566203">
        <ele>161.4</ele>
        <time>2014-03-09T15:54:48Z</time>
      </trkpt>
      <trkpt lat="43.762190" lon="1.566101">
        <ele>161.3</ele>
        <time>2014-03-09T15:55:02Z</time>
      </trkpt>
      <trkpt lat="43.762214" lon="1.565957">
        <ele>161.6</ele>
        <time>2014-03-09T15:55:17Z</time>
      </trkpt>
      <trkpt lat="43.762253" lon="1.565843">
        <ele>161.5</ele>
        <time>2014-03-09T15:55:25Z</time>
      </trkpt>
      <trkpt lat="43.762255" lon="1.565779">
        <ele>161.2</ele>
        <time>2014-03-09T15:56:05Z</time>
      </trkpt>
      <trkpt lat="43.762284" lon="1.565629">
        <ele>161.2</ele>
        <time>2014-03-09T15:56:14Z</time>
      </trkpt>
      <trkpt lat="43.762294" lon="1.565461">
        <ele>161.1</ele>
        <time>2014-03-09T15:56:23Z</time>
      </trkpt>
      <trkpt lat="43.762299" lon="1.565328">
        <ele>161.3</ele>
        <time>2014-03-09T15:56:30Z</time>
      </trkpt>
      <trkpt lat="43.762288" lon="1.565173">
        <ele>161.1</ele>
        <time>2014-03-09T15:56:38Z</time>
      </trkpt>
      <trkpt lat="43.762284" lon="1.565045">
        <ele>161.3</ele>
        <time>2014-03-09T15:56:45Z</time>
      </trkpt>
      <trkpt lat="43.762284" lon="1.564907">
        <ele>161.4</ele>
        <time>2014-03-09T15:56:53Z</time>
      </trkpt>
      <trkpt lat="43.762282" lon="1.564748">
        <ele>161.4</ele>
        <time>2014-03-09T15:57:02Z</time>
      </trkpt>
      <trkpt lat="43.762279" lon="1.564608">
        <ele>161.6</ele>
        <time>2014-03-09T15:57:09Z</time>
      </trkpt>
      <trkpt lat="43.762268" lon="1.564468">
        <ele>161.5</ele>
        <time>2014-03-09T15:57:16Z</time>
      </trkpt>
      <trkpt lat="43.762272" lon="1.564331">
        <ele>161.9</ele>
        <time>2014-03-09T15:57:23Z</time>
      </trkpt>
      <trkpt lat="43.762265" lon="1.564182">
        <ele>162.0</ele>
        <time>2014-03-09T15:57:31Z</time>
      </trkpt>
      <trkpt lat="43.762263" lon="1.564046">
        <ele>161.9</ele>
        <time>2014-03-09T15:57:39Z</time>
      </trkpt>
      <trkpt lat="43.762265" lon="1.563913">
        <ele>161.7</ele>
        <time>2014-03-09T15:57:46Z</time>
      </trkpt>
      <trkpt lat="43.762263" lon="1.563779">
        <ele>162.1</ele>
        <time>2014-03-09T15:57:53Z</time>
      </trkpt>
      <trkpt lat="43.762250" lon="1.563638">
        <ele>162.0</ele>
        <time>2014-03-09T15:58:01Z</time>
      </trkpt>
      <trkpt lat="43.762246" lon="1.563505">
        <ele>161.9</ele>
        <time>2014-03-09T15:58:09Z</time>
      </trkpt>
      <trkpt lat="43.762249" lon="1.563382">
        <ele>161.9</ele>
        <time>2014-03-09T15:58:16Z</time>
      </trkpt>
      <trkpt lat="43.762250" lon="1.563261">
        <ele>161.7</ele>
        <time>2014-03-09T15:58:23Z</time>
      </trkpt>
      <trkpt lat="43.762177" lon="1.563187">
        <ele>161.8</ele>
        <time>2014-03-09T15:58:30Z</time>
      </trkpt>
      <trkpt lat="43.762078" lon="1.563157">
        <ele>162.1</ele>
        <time>2014-03-09T15:58:38Z</time>
      </trkpt>
      <trkpt lat="43.761982" lon="1.563131">
        <ele>162.5</ele>
        <time>2014-03-09T15:58:47Z</time>
      </trkpt>
      <trkpt lat="43.761877" lon="1.563116">
        <ele>162.5</ele>
        <time>2014-03-09T15:58:56Z</time>
      </trkpt>
      <trkpt lat="43.761780" lon="1.563098">
        <ele>162.5</ele>
        <time>2014-03-09T15:59:04Z</time>
      </trkpt>
      <trkpt lat="43.761681" lon="1.563078">
        <ele>162.2</ele>
        <time>2014-03-09T15:59:12Z</time>
      </trkpt>
      <trkpt lat="43.761591" lon="1.563052">
        <ele>162.3</ele>
        <time>2014-03-09T15:59:20Z</time>
      </trkpt>
      <trkpt lat="43.761496" lon="1.563032">
        <ele>162.4</ele>
        <time>2014-03-09T15:59:28Z</time>
      </trkpt>
      <trkpt lat="43.761400" lon="1.563012">
        <ele>162.4</ele>
        <time>2014-03-09T15:59:36Z</time>
      </trkpt>
      <trkpt lat="43.761311" lon="1.562983">
        <ele>162.6</ele>
        <time>2014-03-09T15:59:44Z</time>
      </trkpt>
      <trkpt lat="43.761216" lon="1.562940">
        <ele>162.7</ele>
        <time>2014-03-09T15:59:53Z</time>
      </trkpt>
      <trkpt lat="43.761127" lon="1.562895">
        <ele>162.8</ele>
        <time>2014-03-09T16:00:01Z</time>
      </trkpt>
      <trkpt lat="43.761045" lon="1.562845">
        <ele>162.9</ele>
        <time>2014-03-09T16:00:08Z</time>
      </trkpt>
      <trkpt lat="43.760973" lon="1.562781">
        <ele>162.8</ele>
        <time>2014-03-09T16:00:15Z</time>
      </trkpt>
      <trkpt lat="43.760898" lon="1.562716">
        <ele>162.7</ele>
        <time>2014-03-09T16:00:22Z</time>
      </trkpt>
      <trkpt lat="43.760819" lon="1.562653">
        <ele>162.6</ele>
        <time>2014-03-09T16:00:29Z</time>
      </trkpt>
      <trkpt lat="43.760740" lon="1.562597">
        <ele>162.6</ele>
        <time>2014-03-09T16:00:36Z</time>
      </trkpt>
      <trkpt lat="43.760656" lon="1.562541">
        <ele>162.6</ele>
        <time>2014-03-09T16:00:43Z</time>
      </trkpt>
      <trkpt lat="43.760567" lon="1.562468">
        <ele>162.4</ele>
        <time>2014-03-09T16:00:51Z</time>
      </trkpt>
      <trkpt lat="43.760493" lon="1.562398">
        <ele>162.7</ele>
        <time>2014-03-09T16:00:59Z</time>
      </trkpt>
      <trkpt lat="43.760401" lon="1.562345">
        <ele>163.1</ele>
        <time>2014-03-09T16:01:09Z</time>
      </trkpt>
      <trkpt lat="43.760315" lon="1.562306">
        <ele>162.9</ele>
        <time>2014-03-09T16:01:18Z</time>
      </trkpt>
      <trkpt lat="43.760224" lon="1.562256">
        <ele>163.0</ele>
        <time>2014-03-09T16:01:27Z</time>
      </trkpt>
      <trkpt lat="43.760135" lon="1.562207">
        <ele>163.4</ele>
        <time>2014-03-09T16:01:36Z</time>
      </trkpt>
      <trkpt lat="43.760051" lon="1.562157">
        <ele>163.5</ele>
        <time>2014-03-09T16:01:44Z</time>
      </trkpt>
      <trkpt lat="43.759965" lon="1.562118">
        <ele>163.6</ele>
        <time>2014-03-09T16:01:52Z</time>
      </trkpt>
      <trkpt lat="43.759874" lon="1.562094">
        <ele>164.2</ele>
        <time>2014-03-09T16:02:00Z</time>
      </trkpt>
      <trkpt lat="43.759782" lon="1.562067">
        <ele>164.2</ele>
        <time>2014-03-09T16:02:08Z</time>
      </trkpt>
      <trkpt lat="43.759682" lon="1.562038">
        <ele>164.7</ele>
        <time>2014-03-09T16:02:17Z</time>
      </trkpt>
      <trkpt lat="43.759586" lon="1.562002">
        <ele>164.4</ele>
        <time>2014-03-09T16:02:27Z</time>
      </trkpt>
      <trkpt lat="43.759482" lon="1.561964">
        <ele>164.8</ele>
        <time>2014-03-09T16:02:37Z</time>
      </trkpt>
      <trkpt lat="43.759402" lon="1.561919">
        <ele>165.9</ele>
        <time>2014-03-09T16:02:46Z</time>
      </trkpt>
      <trkpt lat="43.759317" lon="1.561889">
        <ele>166.3</ele>
        <time>2014-03-09T16:02:55Z</time>
      </trkpt>
      <trkpt lat="43.759215" lon="1.561858">
        <ele>166.4</ele>
        <time>2014-03-09T16:03:04Z</time>
      </trkpt>
      <trkpt lat="43.759141" lon="1.561801">
        <ele>166.9</ele>
        <time>2014-03-09T16:03:15Z</time>
      </trkpt>
      <trkpt lat="43.759052" lon="1.561730">
        <ele>166.0</ele>
        <time>2014-03-09T16:03:27Z</time>
      </trkpt>
      <trkpt lat="43.758952" lon="1.561701">
        <ele>166.0</ele>
        <time>2014-03-09T16:03:38Z</time>
      </trkpt>
      <trkpt lat="43.758840" lon="1.561678">
        <ele>166.7</ele>
        <time>2014-03-09T16:03:48Z</time>
      </trkpt>
      <trkpt lat="43.758738" lon="1.561641">
        <ele>167.2</ele>
        <time>2014-03-09T16:03:59Z</time>
      </trkpt>
      <trkpt lat="43.758635" lon="1.561608">
        <ele>167.9</ele>
        <time>2014-03-09T16:04:08Z</time>
      </trkpt>
      <trkpt lat="43.758543" lon="1.561545">
        <ele>168.7</ele>
        <time>2014-03-09T16:04:17Z</time>
      </trkpt>
      <trkpt lat="43.758447" lon="1.561479">
        <ele>169.5</ele>
        <time>2014-03-09T16:04:26Z</time>
      </trkpt>
      <trkpt lat="43.758352" lon="1.561403">
        <ele>170.8</ele>
        <time>2014-03-09T16:04:35Z</time>
      </trkpt>
      <trkpt lat="43.758281" lon="1.561339">
        <ele>171.6</ele>
        <time>2014-03-09T16:04:43Z</time>
      </trkpt>
      <trkpt lat="43.758195" lon="1.561298">
        <ele>172.3</ele>
        <time>2014-03-09T16:04:56Z</time>
      </trkpt>
      <trkpt lat="43.758105" lon="1.561223">
        <ele>172.7</ele>
        <time>2014-03-09T16:05:04Z</time>
      </trkpt>
      <trkpt lat="43.758010" lon="1.561157">
        <ele>173.3</ele>
        <time>2014-03-09T16:05:13Z</time>
      </trkpt>
      <trkpt lat="43.757924" lon="1.561101">
        <ele>173.6</ele>
        <time>2014-03-09T16:05:21Z</time>
      </trkpt>
      <trkpt lat="43.757844" lon="1.561029">
        <ele>173.7</ele>
        <time>2014-03-09T16:05:29Z</time>
      </trkpt>
      <trkpt lat="43.757742" lon="1.560956">
        <ele>174.3</ele>
        <time>2014-03-09T16:05:37Z</time>
      </trkpt>
      <trkpt lat="43.757648" lon="1.560887">
        <ele>174.7</ele>
        <time>2014-03-09T16:05:45Z</time>
      </trkpt>
      <trkpt lat="43.757569" lon="1.560830">
        <ele>175.1</ele>
        <time>2014-03-09T16:05:52Z</time>
      </trkpt>
      <trkpt lat="43.757493" lon="1.560773">
        <ele>175.7</ele>
        <time>2014-03-09T16:05:59Z</time>
      </trkpt>
      <trkpt lat="43.757404" lon="1.560730">
        <ele>176.2</ele>
        <time>2014-03-09T16:06:07Z</time>
      </trkpt>
      <trkpt lat="43.757317" lon="1.560681">
        <ele>176.6</ele>
        <time>2014-03-09T16:06:15Z</time>
      </trkpt>
      <trkpt lat="43.757228" lon="1.560613">
        <ele>177.1</ele>
        <time>2014-03-09T16:06:24Z</time>
      </trkpt>
      <trkpt lat="43.757145" lon="1.560541">
        <ele>177.8</ele>
        <time>2014-03-09T16:06:33Z</time>
      </trkpt>
      <trkpt lat="43.757057" lon="1.560485">
        <ele>178.4</ele>
        <time>2014-03-09T16:06:41Z</time>
      </trkpt>
      <trkpt lat="43.756972" lon="1.560434">
        <ele>178.9</ele>
        <time>2014-03-09T16:06:49Z</time>
      </trkpt>
      <trkpt lat="43.756890" lon="1.560396">
        <ele>179.3</ele>
        <time>2014-03-09T16:06:56Z</time>
      </trkpt>
      <trkpt lat="43.756801" lon="1.560359">
        <ele>180.0</ele>
        <time>2014-03-09T16:07:04Z</time>
      </trkpt>
      <trkpt lat="43.756730" lon="1.560314">
        <ele>180.7</ele>
        <time>2014-03-09T16:07:16Z</time>
      </trkpt>
      <trkpt lat="43.756647" lon="1.560286">
        <ele>180.9</ele>
        <time>2014-03-09T16:07:34Z</time>
      </trkpt>
      <trkpt lat="43.756557" lon="1.560222">
        <ele>181.3</ele>
        <time>2014-03-09T16:07:43Z</time>
      </trkpt>
      <trkpt lat="43.756463" lon="1.560161">
        <ele>181.8</ele>
        <time>2014-03-09T16:07:52Z</time>
      </trkpt>
      <trkpt lat="43.756379" lon="1.560109">
        <ele>182.1</ele>
        <time>2014-03-09T16:08:00Z</time>
      </trkpt>
      <trkpt lat="43.756298" lon="1.560027">
        <ele>182.0</ele>
        <time>2014-03-09T16:08:08Z</time>
      </trkpt>
      <trkpt lat="43.756222" lon="1.559942">
        <ele>182.1</ele>
        <time>2014-03-09T16:08:16Z</time>
      </trkpt>
      <trkpt lat="43.756145" lon="1.559865">
        <ele>181.7</ele>
        <time>2014-03-09T16:08:24Z</time>
      </trkpt>
      <trkpt lat="43.756054" lon="1.559803">
        <ele>181.7</ele>
        <time>2014-03-09T16:08:32Z</time>
      </trkpt>
      <trkpt lat="43.755956" lon="1.559755">
        <ele>181.7</ele>
        <time>2014-03-09T16:08:40Z</time>
      </trkpt>
      <trkpt lat="43.755862" lon="1.559715">
        <ele>181.5</ele>
        <time>2014-03-09T16:08:48Z</time>
      </trkpt>
      <trkpt lat="43.755756" lon="1.559691">
        <ele>181.5</ele>
        <time>2014-03-09T16:08:56Z</time>
      </trkpt>
      <trkpt lat="43.755652" lon="1.559666">
        <ele>181.6</ele>
        <time>2014-03-09T16:09:06Z</time>
      </trkpt>
      <trkpt lat="43.755570" lon="1.559611">
        <ele>181.6</ele>
        <time>2014-03-09T16:09:15Z</time>
      </trkpt>
      <trkpt lat="43.755492" lon="1.559552">
        <ele>181.4</ele>
        <time>2014-03-09T16:09:24Z</time>
      </trkpt>
      <trkpt lat="43.755411" lon="1.559492">
        <ele>181.5</ele>
        <time>2014-03-09T16:09:32Z</time>
      </trkpt>
      <trkpt lat="43.755321" lon="1.559437">
        <ele>181.5</ele>
        <time>2014-03-09T16:09:41Z</time>
      </trkpt>
      <trkpt lat="43.755229" lon="1.559378">
        <ele>181.6</ele>
        <time>2014-03-09T16:09:50Z</time>
      </trkpt>
      <trkpt lat="43.755172" lon="1.559272">
        <ele>181.5</ele>
        <time>2014-03-09T16:09:58Z</time>
      </trkpt>
      <trkpt lat="43.755090" lon="1.559199">
        <ele>181.4</ele>
        <time>2014-03-09T16:10:07Z</time>
      </trkpt>
      <trkpt lat="43.755026" lon="1.559104">
        <ele>181.3</ele>
        <time>2014-03-09T16:10:15Z</time>
      </trkpt>
      <trkpt lat="43.754990" lon="1.558969">
        <ele>181.2</ele>
        <time>2014-03-09T16:10:24Z</time>
      </trkpt>
      <trkpt lat="43.754964" lon="1.558813">
        <ele>181.5</ele>
        <time>2014-03-09T16:10:33Z</time>
      </trkpt>
      <trkpt lat="43.754966" lon="1.558643">
        <ele>181.2</ele>
        <time>2014-03-09T16:10:44Z</time>
      </trkpt>
      <trkpt lat="43.754981" lon="1.558500">
        <ele>181.5</ele>
        <time>2014-03-09T16:10:53Z</time>
      </trkpt>
      <trkpt lat="43.755002" lon="1.558354">
        <ele>181.9</ele>
        <time>2014-03-09T16:11:02Z</time>
      </trkpt>
      <trkpt lat="43.755012" lon="1.558201">
        <ele>182.5</ele>
        <time>2014-03-09T16:11:11Z</time>
      </trkpt>
      <trkpt lat="43.755026" lon="1.558067">
        <ele>182.7</ele>
        <time>2014-03-09T16:11:20Z</time>
      </trkpt>
      <trkpt lat="43.755049" lon="1.557929">
        <ele>182.9</ele>
        <time>2014-03-09T16:11:29Z</time>
      </trkpt>
      <trkpt lat="43.755099" lon="1.557811">
        <ele>183.1</ele>
        <time>2014-03-09T16:11:37Z</time>
      </trkpt>
      <trkpt lat="43.755148" lon="1.557692">
        <ele>183.3</ele>
        <time>2014-03-09T16:11:46Z</time>
      </trkpt>
      <trkpt lat="43.755195" lon="1.557559">
        <ele>183.7</ele>
        <time>2014-03-09T16:11:55Z</time>
      </trkpt>
      <trkpt lat="43.755226" lon="1.557436">
        <ele>184.1</ele>
        <time>2014-03-09T16:12:03Z</time>
      </trkpt>
      <trkpt lat="43.755286" lon="1.557321">
        <ele>184.3</ele>
        <time>2014-03-09T16:12:11Z</time>
      </trkpt>
      <trkpt lat="43.755352" lon="1.557214">
        <ele>184.5</ele>
        <time>2014-03-09T16:12:21Z</time>
      </trkpt>
      <trkpt lat="43.755399" lon="1.557087">
        <ele>185.5</ele>
        <time>2014-03-09T16:12:31Z</time>
      </trkpt>
      <trkpt lat="43.755439" lon="1.556964">
        <ele>186.2</ele>
        <time>2014-03-09T16:12:40Z</time>
      </trkpt>
      <trkpt lat="43.755460" lon="1.556827">
        <ele>186.9</ele>
        <time>2014-03-09T16:12:49Z</time>
      </trkpt>
      <trkpt lat="43.755470" lon="1.556687">
        <ele>186.9</ele>
        <time>2014-03-09T16:12:58Z</time>
      </trkpt>
      <trkpt lat="43.755453" lon="1.556536">
        <ele>187.1</ele>
        <time>2014-03-09T16:13:08Z</time>
      </trkpt>
      <trkpt lat="43.755448" lon="1.556368">
        <ele>186.8</ele>
        <time>2014-03-09T16:13:19Z</time>
      </trkpt>
      <trkpt lat="43.755477" lon="1.556220">
        <ele>186.5</ele>
        <time>2014-03-09T16:13:31Z</time>
      </trkpt>
      <trkpt lat="43.755446" lon="1.556199">
        <ele>187.0</ele>
        <time>2014-03-09T16:14:26Z</time>
      </trkpt>
    </trkseg>
  </trk>
</gpx>

